Observation data for McCamey on 08/14/2019      Previous  Date  Next       Current Mesonet Observations  Soil Data  Daily Summary Page  Observations in Plain Language
KMC4 140500Z 27005KT 28/18 A3004 RMK A01 T02790180  RH  055%=      5-min Rain = 0
KMC4 140501Z 28005KT 28/18 A3004 RMK A01 T02790180  RH  055%=      5-min Rain = 0
KMC4 140502Z 28006KT 28/18 A3004 RMK A01 T02800180  RH  055%=      5-min Rain = 0
KMC4 140503Z 28006KT 28/18 A3004 RMK A01 T02790180  RH  055%=      5-min Rain = 0
KMC4 140504Z 28006KT 28/18 A3004 RMK A01 T02790181  RH  055%=      5-min Rain = 0
KMC4 140505Z 28005KT 28/18 A3004 RMK A01 T02800182  RH  055%=      5-min Rain = 0
KMC4 140506Z 28005KT 28/18 A3004 RMK A01 T02790182  RH  055%=      5-min Rain = 0
KMC4 140507Z 28005KT 28/18 A3004 RMK A01 T02790181  RH  055%=      5-min Rain = 0
KMC4 140508Z 28005KT 28/18 A3004 RMK A01 T02790181  RH  055%=      5-min Rain = 0
KMC4 140509Z 28005KT 28/18 A3004 RMK A01 T02790181  RH  055%=      5-min Rain = 0
KMC4 140510Z 29004KT 28/18 A3004 RMK A01 T02780181  RH  056%=      5-min Rain = 0
KMC4 140524Z 30001KT 28/18 A3004 RMK A01 T02750180  RH  056%=      5-min Rain = 0
KMC4 140525Z 28001KT 28/18 A3004 RMK A01 T02750181  RH  056%=      5-min Rain = 0
KMC4 140526Z 25000KT 28/18 A3005 RMK A01 T02750181  RH  056%=      5-min Rain = 0
KMC4 140527Z 00000KT 28/18 A3005 RMK A01 T02750181  RH  057%=      5-min Rain = 0
KMC4 140528Z 19000KT 28/18 A3005 RMK A01 T02750181  RH  056%=      5-min Rain = 0
KMC4 140529Z 14002KT 28/18 A3005 RMK A01 T02750181  RH  057%=      5-min Rain = 0
KMC4 140530Z 14002KT 28/18 A3005 RMK A01 T02750182  RH  057%=      5-min Rain = 0
KMC4 140531Z 13002KT 28/18 A3005 RMK A01 T02750182  RH  057%=      5-min Rain = 0
KMC4 140532Z 15003KT 27/18 A3005 RMK A01 T02740182  RH  057%=      5-min Rain = 0
KMC4 140533Z 14004KT 27/18 A3005 RMK A01 T02740183  RH  058%=      5-min Rain = 0
KMC4 140534Z 14005KT 27/18 A3005 RMK A01 T02730183  RH  058%=      5-min Rain = 0
KMC4 140535Z 13005KT 27/18 A3005 RMK A01 T02730181  RH  057%=      5-min Rain = 0
KMC4 140536Z 13005KT 27/18 A3005 RMK A01 T02720181  RH  057%=      5-min Rain = 0
KMC4 140537Z 13004KT 27/18 A3005 RMK A01 T02720180  RH  057%=      5-min Rain = 0
KMC4 140538Z 14005KT 27/18 A3005 RMK A01 T02720181  RH  057%=      5-min Rain = 0
KMC4 140539Z 14004KT 27/18 A3005 RMK A01 T02720181  RH  057%=      5-min Rain = 0
KMC4 140540Z 14004KT 27/18 A3005 RMK A01 T02720180  RH  057%=      5-min Rain = 0
KMC4 140541Z 13004KT 27/18 A3005 RMK A01 T02720180  RH  057%=      5-min Rain = 0
KMC4 140542Z 13004KT 27/18 A3005 RMK A01 T02720180  RH  057%=      5-min Rain = 0
KMC4 140543Z 13003KT 27/18 A3005 RMK A01 T02730180  RH  057%=      5-min Rain = 0
KMC4 140544Z 13003KT 27/18 A3005 RMK A01 T02730180  RH  057%=      5-min Rain = 0
KMC4 140545Z 13003KT 27/18 A3005 RMK A01 T02730180  RH  057%=      5-min Rain = 0
KMC4 140546Z 13003KT 27/18 A3005 RMK A01 T02730180  RH  057%=      5-min Rain = 0
KMC4 140547Z 14003KT 27/18 A3005 RMK A01 T02730180  RH  057%=      5-min Rain = 0
KMC4 140548Z 14002KT 27/18 A3005 RMK A01 T02730180  RH  057%=      5-min Rain = 0
KMC4 140549Z 14002KT 27/18 A3005 RMK A01 T02730180  RH  057%=      5-min Rain = 0
KMC4 140550Z 14001KT 27/18 A3005 RMK A01 T02730180  RH  057%=      5-min Rain = 0
KMC4 140551Z 14001KT 27/18 A3005 RMK A01 T02740180  RH  057%=      5-min Rain = 0
KMC4 140552Z 15001KT 27/18 A3005 RMK A01 T02740180  RH  057%=      5-min Rain = 0
KMC4 140553Z 17001KT 27/18 A3005 RMK A01 T02730180  RH  057%=      5-min Rain = 0
KMC4 140554Z 17001KT 27/18 A3005 RMK A01 T02730180  RH  057%=      5-min Rain = 0
KMC4 140555Z 17000KT 27/18 A3005 RMK A01 T02730180  RH  057%=      5-min Rain = 0
KMC4 140556Z 00000KT 27/18 A3005 RMK A01 T02730180  RH  057%=      5-min Rain = 0
KMC4 140557Z 00000KT 27/18 A3005 RMK A01 T02730180  RH  057%=      5-min Rain = 0
KMC4 140558Z 00000KT 27/18 A3005 RMK A01 T02730180  RH  057%=      5-min Rain = 0
KMC4 140559Z 00000KT 27/18 A3005 RMK A01 T02730179  RH  056%=      5-min Rain = 0
KMC4 140600Z 00000KT 27/18 A3005 RMK A01 T02740179  RH  056%=      5-min Rain = 0
KMC4 140601Z 00000KT 27/18 A3005 RMK A01 T02740180  RH  056%=      5-min Rain = 0
KMC4 140602Z 00000KT 27/18 A3005 RMK A01 T02740181  RH  057%=      5-min Rain = 0
KMC4 140603Z 00000KT 27/18 A3005 RMK A01 T02740180  RH  056%=      5-min Rain = 0
KMC4 140604Z 00000KT 27/18 A3005 RMK A01 T02740180  RH  056%=      5-min Rain = 0
KMC4 140605Z 00000KT 28/18 A3005 RMK A01 T02750179  RH  056%=      5-min Rain = 0
KMC4 140606Z 00000KT 27/18 A3005 RMK A01 T02740180  RH  056%=      5-min Rain = 0
KMC4 140607Z 00000KT 27/18 A3005 RMK A01 T02740180  RH  056%=      5-min Rain = 0
KMC4 140608Z 00000KT 27/18 A3005 RMK A01 T02740178  RH  056%=      5-min Rain = 0
KMC4 140609Z 00000KT 28/18 A3005 RMK A01 T02750179  RH  056%=      5-min Rain = 0
KMC4 140610Z 13001KT 28/18 A3005 RMK A01 T02750180  RH  056%=      5-min Rain = 0
KMC4 140611Z 11001KT 28/18 A3005 RMK A01 T02760180  RH  056%=      5-min Rain = 0
KMC4 140612Z 12002KT 28/18 A3005 RMK A01 T02760180  RH  056%=      5-min Rain = 0
KMC4 140613Z 13002KT 28/18 A3005 RMK A01 T02760179  RH  056%=      5-min Rain = 0
KMC4 140614Z 13002KT 28/18 A3005 RMK A01 T02760182  RH  057%=      5-min Rain = 0
KMC4 140615Z 12002KT 28/18 A3005 RMK A01 T02750183  RH  057%=      5-min Rain = 0
KMC4 140616Z 12002KT 27/18 A3005 RMK A01 T02740181  RH  057%=      5-min Rain = 0
KMC4 140617Z 12002KT 27/18 A3005 RMK A01 T02740182  RH  057%=      5-min Rain = 0
KMC4 140618Z 13002KT 27/18 A3005 RMK A01 T02730181  RH  057%=      5-min Rain = 0
KMC4 140619Z 14002KT 27/18 A3005 RMK A01 T02740182  RH  057%=      5-min Rain = 0
KMC4 140620Z 14002KT 27/18 A3005 RMK A01 T02730182  RH  057%=      5-min Rain = 0
KMC4 140621Z 15002KT 27/18 A3005 RMK A01 T02730182  RH  057%=      5-min Rain = 0
KMC4 140622Z 16002KT 27/18 A3004 RMK A01 T02730182  RH  057%=      5-min Rain = 0
KMC4 140623Z 17002KT 27/18 A3004 RMK A01 T02730181  RH  057%=      5-min Rain = 0
KMC4 140624Z 17003KT 27/18 A3004 RMK A01 T02730181  RH  057%=      5-min Rain = 0
KMC4 140625Z 17003KT 27/18 A3004 RMK A01 T02730182  RH  058%=      5-min Rain = 0
KMC4 140626Z 17004KT 27/18 A3004 RMK A01 T02730182  RH  058%=      5-min Rain = 0
KMC4 140627Z 17004KT 27/18 A3004 RMK A01 T02720182  RH  058%=      5-min Rain = 0
KMC4 140628Z 17004KT 27/18 A3004 RMK A01 T02720181  RH  058%=      5-min Rain = 0
KMC4 140629Z 16004KT 27/18 A3004 RMK A01 T02710182  RH  058%=      5-min Rain = 0
KMC4 140630Z 16004KT 27/18 A3004 RMK A01 T02700182  RH  058%=      5-min Rain = 0
KMC4 140631Z 15003KT 27/18 A3004 RMK A01 T02700183  RH  059%=      5-min Rain = 0
KMC4 140632Z 14003KT 27/18 A3004 RMK A01 T02700184  RH  059%=      5-min Rain = 0
KMC4 140633Z 14003KT 27/18 A3004 RMK A01 T02690183  RH  059%=      5-min Rain = 0
KMC4 140634Z 14003KT 27/18 A3004 RMK A01 T02690183  RH  059%=      5-min Rain = 0
KMC4 140635Z 14004KT 27/18 A3004 RMK A01 T02690182  RH  059%=      5-min Rain = 0
KMC4 140636Z 14004KT 27/18 A3004 RMK A01 T02690182  RH  059%=      5-min Rain = 0
KMC4 140637Z 14004KT 27/18 A3004 RMK A01 T02690182  RH  059%=      5-min Rain = 0
KMC4 140638Z 14003KT 27/18 A3004 RMK A01 T02690183  RH  059%=      5-min Rain = 0
KMC4 140639Z 15003KT 27/18 A3004 RMK A01 T02690183  RH  059%=      5-min Rain = 0
KMC4 140640Z 15003KT 27/18 A3004 RMK A01 T02690183  RH  059%=      5-min Rain = 0
KMC4 140641Z 14003KT 27/18 A3005 RMK A01 T02690183  RH  059%=      5-min Rain = 0
KMC4 140642Z 14003KT 27/18 A3005 RMK A01 T02690183  RH  059%=      5-min Rain = 0
KMC4 140643Z 14003KT 27/18 A3005 RMK A01 T02690183  RH  059%=      5-min Rain = 0
KMC4 140644Z 14003KT 27/18 A3005 RMK A01 T02680182  RH  059%=      5-min Rain = 0
KMC4 140645Z 14003KT 27/18 A3005 RMK A01 T02680182  RH  059%=      5-min Rain = 0
KMC4 140646Z 14003KT 27/18 A3005 RMK A01 T02690182  RH  059%=      5-min Rain = 0
KMC4 140647Z 14003KT 27/18 A3005 RMK A01 T02680182  RH  059%=      5-min Rain = 0
KMC4 140648Z 14004KT 27/18 A3004 RMK A01 T02680182  RH  059%=      5-min Rain = 0
KMC4 140649Z 15004KT 27/18 A3004 RMK A01 T02690182  RH  059%=      5-min Rain = 0
KMC4 140650Z 15004KT 27/18 A3004 RMK A01 T02680181  RH  059%=      5-min Rain = 0
KMC4 140651Z 15003KT 27/18 A3004 RMK A01 T02680182  RH  059%=      5-min Rain = 0
KMC4 140652Z 15003KT 27/18 A3004 RMK A01 T02680182  RH  059%=      5-min Rain = 0
KMC4 140653Z 15003KT 27/18 A3004 RMK A01 T02690182  RH  059%=      5-min Rain = 0
KMC4 140654Z 16004KT 27/18 A3004 RMK A01 T02680182  RH  059%=      5-min Rain = 0
KMC4 140655Z 15004KT 27/18 A3004 RMK A01 T02690183  RH  059%=      5-min Rain = 0
KMC4 140656Z 15004KT 27/18 A3004 RMK A01 T02680182  RH  059%=      5-min Rain = 0
KMC4 140657Z 15004KT 27/18 A3004 RMK A01 T02690183  RH  059%=      5-min Rain = 0
KMC4 140658Z 15004KT 27/18 A3004 RMK A01 T02680183  RH  059%=      5-min Rain = 0
KMC4 140659Z 15004KT 27/18 A3004 RMK A01 T02680183  RH  059%=      5-min Rain = 0
KMC4 140700Z 15004KT 27/18 A3004 RMK A01 T02680182  RH  059%=      5-min Rain = 0
KMC4 140701Z 15004KT 27/18 A3004 RMK A01 T02680182  RH  059%=      5-min Rain = 0
KMC4 140702Z 15004KT 27/18 A3004 RMK A01 T02680182  RH  059%=      5-min Rain = 0
KMC4 140703Z 15004KT 27/18 A3005 RMK A01 T02680182  RH  059%=      5-min Rain = 0
KMC4 140704Z 16004KT 27/18 A3005 RMK A01 T02680182  RH  059%=      5-min Rain = 0
KMC4 140705Z 16004KT 27/18 A3005 RMK A01 T02680182  RH  059%=      5-min Rain = 0
KMC4 140706Z 15004KT 27/18 A3005 RMK A01 T02680182  RH  059%=      5-min Rain = 0
KMC4 140707Z 16004KT 27/18 A3005 RMK A01 T02680182  RH  059%=      5-min Rain = 0
KMC4 140708Z 16004KT 27/18 A3005 RMK A01 T02680181  RH  059%=      5-min Rain = 0
KMC4 140709Z 15004KT 27/18 A3005 RMK A01 T02680181  RH  059%=      5-min Rain = 0
KMC4 140710Z 15003KT 27/18 A3005 RMK A01 T02680181  RH  059%=      5-min Rain = 0
KMC4 140711Z 15003KT 27/18 A3004 RMK A01 T02680181  RH  059%=      5-min Rain = 0
KMC4 140712Z 15003KT 27/18 A3004 RMK A01 T02680181  RH  059%=      5-min Rain = 0
KMC4 140713Z 16003KT 27/18 A3004 RMK A01 T02670180  RH  059%=      5-min Rain = 0
KMC4 140714Z 16002KT 27/18 A3004 RMK A01 T02680180  RH  059%=      5-min Rain = 0
KMC4 140715Z 16002KT 27/18 A3004 RMK A01 T02670180  RH  059%=      5-min Rain = 0
KMC4 140716Z 16002KT 27/18 A3004 RMK A01 T02680180  RH  058%=      5-min Rain = 0
KMC4 140717Z 16002KT 27/18 A3004 RMK A01 T02670179  RH  058%=      5-min Rain = 0
KMC4 140718Z 16001KT 27/18 A3004 RMK A01 T02680179  RH  058%=      5-min Rain = 0
KMC4 140719Z 16001KT 27/18 A3004 RMK A01 T02680179  RH  058%=      5-min Rain = 0
KMC4 140720Z 15000KT 27/18 A3005 RMK A01 T02680179  RH  058%=      5-min Rain = 0
KMC4 140721Z 00000KT 27/18 A3005 RMK A01 T02680179  RH  058%=      5-min Rain = 0
KMC4 140722Z 00000KT 27/18 A3005 RMK A01 T02670179  RH  058%=      5-min Rain = 0
KMC4 140723Z 00000KT 27/18 A3005 RMK A01 T02670179  RH  058%=      5-min Rain = 0
KMC4 140724Z 00000KT 27/18 A3005 RMK A01 T02680179  RH  058%=      5-min Rain = 0
KMC4 140725Z 00000KT 27/18 A3005 RMK A01 T02670179  RH  058%=      5-min Rain = 0
KMC4 140726Z 00000KT 27/18 A3005 RMK A01 T02680178  RH  058%=      5-min Rain = 0
KMC4 140727Z 34000KT 27/18 A3005 RMK A01 T02680178  RH  058%=      5-min Rain = 0
KMC4 140728Z 34001KT 27/18 A3005 RMK A01 T02680179  RH  058%=      5-min Rain = 0
KMC4 140729Z 34000KT 27/18 A3005 RMK A01 T02680178  RH  057%=      5-min Rain = 0
KMC4 140730Z 00000KT 27/18 A3005 RMK A01 T02690177  RH  057%=      5-min Rain = 0
KMC4 140731Z 00000KT 27/18 A3005 RMK A01 T02690177  RH  057%=      5-min Rain = 0
KMC4 140732Z 00000KT 27/18 A3005 RMK A01 T02690178  RH  057%=      5-min Rain = 0
KMC4 140733Z 00000KT 27/18 A3005 RMK A01 T02690178  RH  057%=      5-min Rain = 0
KMC4 140734Z 00000KT 27/18 A3005 RMK A01 T02690178  RH  057%=      5-min Rain = 0
KMC4 140735Z 32001KT 27/18 A3005 RMK A01 T02690178  RH  058%=      5-min Rain = 0
KMC4 140736Z 31001KT 27/18 A3005 RMK A01 T02690178  RH  058%=      5-min Rain = 0
KMC4 140737Z 31001KT 27/18 A3005 RMK A01 T02690179  RH  058%=      5-min Rain = 0
KMC4 140738Z 31002KT 27/18 A3005 RMK A01 T02690178  RH  058%=      5-min Rain = 0
KMC4 140739Z 31002KT 27/18 A3005 RMK A01 T02690179  RH  058%=      5-min Rain = 0
KMC4 140740Z 31002KT 27/18 A3005 RMK A01 T02690179  RH  058%=      5-min Rain = 0
KMC4 140741Z 31002KT 27/18 A3005 RMK A01 T02690179  RH  058%=      5-min Rain = 0
KMC4 140742Z 31002KT 27/18 A3005 RMK A01 T02690179  RH  058%=      5-min Rain = 0
KMC4 140743Z 31001KT 27/18 A3005 RMK A01 T02690180  RH  058%=      5-min Rain = 0
KMC4 140744Z 31001KT 27/18 A3005 RMK A01 T02690180  RH  058%=      5-min Rain = 0
KMC4 140745Z 31000KT 27/18 A3005 RMK A01 T02690180  RH  058%=      5-min Rain = 0
KMC4 140746Z 31001KT 27/18 A3005 RMK A01 T02690180  RH  058%=      5-min Rain = 0
KMC4 140747Z 33001KT 27/18 A3005 RMK A01 T02680179  RH  058%=      5-min Rain = 0
KMC4 140748Z 33001KT 27/18 A3005 RMK A01 T02680178  RH  058%=      5-min Rain = 0
KMC4 140749Z 34001KT 27/18 A3005 RMK A01 T02680178  RH  058%=      5-min Rain = 0
KMC4 140750Z 34001KT 27/18 A3005 RMK A01 T02680178  RH  058%=      5-min Rain = 0
KMC4 140751Z 35001KT 27/18 A3005 RMK A01 T02690178  RH  057%=      5-min Rain = 0
KMC4 140752Z 35001KT 27/18 A3005 RMK A01 T02690178  RH  057%=      5-min Rain = 0
KMC4 140753Z 00001KT 27/18 A3005 RMK A01 T02690178  RH  057%=      5-min Rain = 0
KMC4 140754Z 01002KT 27/18 A3005 RMK A01 T02700178  RH  057%=      5-min Rain = 0
KMC4 140755Z 01002KT 27/18 A3005 RMK A01 T02700179  RH  057%=      5-min Rain = 0
KMC4 140756Z 01002KT 27/18 A3005 RMK A01 T02700180  RH  058%=      5-min Rain = 0
KMC4 140757Z 02002KT 27/18 A3005 RMK A01 T02700181  RH  058%=      5-min Rain = 0
KMC4 140758Z 02003KT 27/18 A3005 RMK A01 T02700181  RH  058%=      5-min Rain = 0
KMC4 140759Z 02002KT 27/18 A3005 RMK A01 T02700181  RH  058%=      5-min Rain = 0
KMC4 140800Z 03002KT 27/18 A3005 RMK A01 T02700181  RH  058%=      5-min Rain = 0
KMC4 140801Z 02002KT 27/18 A3005 RMK A01 T02690181  RH  058%=      5-min Rain = 0
KMC4 140802Z 03002KT 27/18 A3005 RMK A01 T02690181  RH  059%=      5-min Rain = 0
KMC4 140803Z 03001KT 27/18 A3005 RMK A01 T02690183  RH  059%=      5-min Rain = 0
KMC4 140804Z 04001KT 27/18 A3005 RMK A01 T02690183  RH  059%=      5-min Rain = 0
KMC4 140805Z 04001KT 27/18 A3005 RMK A01 T02690184  RH  059%=      5-min Rain = 0
KMC4 140806Z 00000KT 27/18 A3005 RMK A01 T02690184  RH  060%=      5-min Rain = 0
KMC4 140807Z 04000KT 27/18 A3005 RMK A01 T02690184  RH  060%=      5-min Rain = 0
KMC4 140808Z 00000KT 27/19 A3005 RMK A01 T02690185  RH  060%=      5-min Rain = 0
KMC4 140809Z 00000KT 27/19 A3004 RMK A01 T02690186  RH  061%=      5-min Rain = 0
KMC4 140810Z 00000KT 27/19 A3004 RMK A01 T02690188  RH  061%=      5-min Rain = 0
KMC4 140811Z 00000KT 27/19 A3004 RMK A01 T02680187  RH  061%=      5-min Rain = 0
KMC4 140812Z 00000KT 27/19 A3004 RMK A01 T02680188  RH  061%=      5-min Rain = 0
KMC4 140813Z 00000KT 27/19 A3004 RMK A01 T02680189  RH  062%=      5-min Rain = 0
KMC4 140814Z 00000KT 27/19 A3004 RMK A01 T02680189  RH  062%=      5-min Rain = 0
KMC4 140815Z 00000KT 27/19 A3005 RMK A01 T02670189  RH  062%=      5-min Rain = 0
KMC4 140816Z 00000KT 27/19 A3005 RMK A01 T02670189  RH  062%=      5-min Rain = 0
KMC4 140817Z 00000KT 27/19 A3005 RMK A01 T02670188  RH  062%=      5-min Rain = 0
KMC4 140818Z 00000KT 27/19 A3005 RMK A01 T02660188  RH  062%=      5-min Rain = 0
KMC4 140819Z 00000KT 27/19 A3005 RMK A01 T02660189  RH  062%=      5-min Rain = 0
KMC4 140820Z 00000KT 27/19 A3005 RMK A01 T02660189  RH  063%=      5-min Rain = 0
KMC4 140821Z 00000KT 27/19 A3004 RMK A01 T02660190  RH  063%=      5-min Rain = 0
KMC4 140822Z 00000KT 27/19 A3004 RMK A01 T02660191  RH  063%=      5-min Rain = 0
KMC4 140823Z 00001KT 27/19 A3004 RMK A01 T02660191  RH  063%=      5-min Rain = 0
KMC4 140824Z 00001KT 27/19 A3004 RMK A01 T02660190  RH  063%=      5-min Rain = 0
KMC4 140825Z 00002KT 27/19 A3004 RMK A01 T02660189  RH  063%=      5-min Rain = 0
KMC4 140826Z 01002KT 27/19 A3004 RMK A01 T02660191  RH  063%=      5-min Rain = 0
KMC4 140827Z 02002KT 27/19 A3004 RMK A01 T02660191  RH  064%=      5-min Rain = 0
KMC4 140828Z 01002KT 27/19 A3004 RMK A01 T02660191  RH  064%=      5-min Rain = 0
KMC4 140829Z 01002KT 27/19 A3005 RMK A01 T02660192  RH  064%=      5-min Rain = 0
KMC4 140830Z 01002KT 27/19 A3005 RMK A01 T02650192  RH  064%=      5-min Rain = 0
KMC4 140831Z 00002KT 27/19 A3005 RMK A01 T02650193  RH  064%=      5-min Rain = 0
KMC4 140832Z 01002KT 27/19 A3004 RMK A01 T02650193  RH  065%=      5-min Rain = 0
KMC4 140833Z 01002KT 27/19 A3004 RMK A01 T02650192  RH  064%=      5-min Rain = 0
KMC4 140834Z 01002KT 27/19 A3004 RMK A01 T02650192  RH  064%=      5-min Rain = 0
KMC4 140835Z 01002KT 26/19 A3004 RMK A01 T02640191  RH  064%=      5-min Rain = 0
KMC4 140836Z 00003KT 26/19 A3004 RMK A01 T02640191  RH  064%=      5-min Rain = 0
KMC4 140837Z 01003KT 26/19 A3004 RMK A01 T02640191  RH  064%=      5-min Rain = 0
KMC4 140838Z 01003KT 26/19 A3004 RMK A01 T02640191  RH  064%=      5-min Rain = 0
KMC4 140839Z 00002KT 26/19 A3004 RMK A01 T02640190  RH  064%=      5-min Rain = 0
KMC4 140840Z 01001KT 26/19 A3004 RMK A01 T02640190  RH  064%=      5-min Rain = 0
KMC4 140841Z 01001KT 26/19 A3004 RMK A01 T02640190  RH  064%=      5-min Rain = 0
KMC4 140842Z 01001KT 26/19 A3004 RMK A01 T02640190  RH  064%=      5-min Rain = 0
KMC4 140843Z 02000KT 26/19 A3004 RMK A01 T02640190  RH  064%=      5-min Rain = 0
KMC4 140844Z 03000KT 26/19 A3004 RMK A01 T02640190  RH  064%=      5-min Rain = 0
KMC4 140845Z 03001KT 26/19 A3004 RMK A01 T02640190  RH  064%=      5-min Rain = 0
KMC4 140846Z 04001KT 26/19 A3004 RMK A01 T02640190  RH  064%=      5-min Rain = 0
KMC4 140847Z 04002KT 26/19 A3004 RMK A01 T02640190  RH  064%=      5-min Rain = 0
KMC4 140848Z 04001KT 26/19 A3004 RMK A01 T02640190  RH  064%=      5-min Rain = 0
KMC4 140849Z 05001KT 26/19 A3004 RMK A01 T02640190  RH  064%=      5-min Rain = 0
KMC4 140850Z 05001KT 26/19 A3004 RMK A01 T02640190  RH  064%=      5-min Rain = 0
KMC4 140851Z 05001KT 26/19 A3004 RMK A01 T02640190  RH  064%=      5-min Rain = 0
KMC4 140852Z 05001KT 26/19 A3004 RMK A01 T02640190  RH  064%=      5-min Rain = 0
KMC4 140853Z 05000KT 26/19 A3004 RMK A01 T02640191  RH  064%=      5-min Rain = 0
KMC4 140854Z 09000KT 26/19 A3004 RMK A01 T02640191  RH  064%=      5-min Rain = 0
KMC4 140855Z 08001KT 26/19 A3004 RMK A01 T02640190  RH  064%=      5-min Rain = 0
KMC4 140856Z 07002KT 26/19 A3004 RMK A01 T02640190  RH  064%=      5-min Rain = 0
KMC4 140857Z 07002KT 26/19 A3004 RMK A01 T02640190  RH  064%=      5-min Rain = 0
KMC4 140858Z 06002KT 26/19 A3004 RMK A01 T02640190  RH  064%=      5-min Rain = 0
KMC4 140859Z 06002KT 26/19 A3004 RMK A01 T02640188  RH  063%=      5-min Rain = 0
KMC4 140900Z 07002KT 26/19 A3004 RMK A01 T02640187  RH  063%=      5-min Rain = 0
KMC4 140901Z 07002KT 26/19 A3004 RMK A01 T02640188  RH  063%=      5-min Rain = 0
KMC4 140902Z 07001KT 26/19 A3004 RMK A01 T02640187  RH  063%=      5-min Rain = 0
KMC4 140903Z 07001KT 26/19 A3004 RMK A01 T02640187  RH  062%=      5-min Rain = 0
KMC4 140904Z 07001KT 27/19 A3004 RMK A01 T02650187  RH  062%=      5-min Rain = 0
KMC4 140905Z 07002KT 27/19 A3004 RMK A01 T02650187  RH  062%=      5-min Rain = 0
KMC4 140906Z 08002KT 27/19 A3004 RMK A01 T02650186  RH  062%=      5-min Rain = 0
KMC4 140907Z 10002KT 27/19 A3004 RMK A01 T02650187  RH  062%=      5-min Rain = 0
KMC4 140908Z 11002KT 27/19 A3004 RMK A01 T02650187  RH  062%=      5-min Rain = 0
KMC4 140909Z 12003KT 27/19 A3004 RMK A01 T02650189  RH  063%=      5-min Rain = 0
KMC4 140910Z 12003KT 27/19 A3004 RMK A01 T02650190  RH  063%=      5-min Rain = 0
KMC4 140911Z 10003KT 26/19 A3004 RMK A01 T02640190  RH  064%=      5-min Rain = 0
KMC4 140912Z 08003KT 26/19 A3004 RMK A01 T02640189  RH  063%=      5-min Rain = 0
KMC4 140913Z 06003KT 26/19 A3004 RMK A01 T02630188  RH  063%=      5-min Rain = 0
KMC4 140914Z 05003KT 26/19 A3004 RMK A01 T02630187  RH  063%=      5-min Rain = 0
KMC4 140915Z 04003KT 26/19 A3004 RMK A01 T02630187  RH  063%=      5-min Rain = 0
KMC4 140916Z 05004KT 26/19 A3004 RMK A01 T02640188  RH  063%=      5-min Rain = 0
KMC4 140917Z 04002KT 26/19 A3004 RMK A01 T02640188  RH  063%=      5-min Rain = 0
KMC4 140918Z 05003KT 26/19 A3004 RMK A01 T02640188  RH  063%=      5-min Rain = 0
KMC4 140919Z 04003KT 26/19 A3004 RMK A01 T02640189  RH  063%=      5-min Rain = 0
KMC4 140920Z 05002KT 26/19 A3004 RMK A01 T02640190  RH  064%=      5-min Rain = 0
KMC4 140921Z 06003KT 26/19 A3004 RMK A01 T02640189  RH  063%=      5-min Rain = 0
KMC4 140922Z 04003KT 26/19 A3004 RMK A01 T02640189  RH  063%=      5-min Rain = 0
KMC4 140923Z 05003KT 26/19 A3004 RMK A01 T02640189  RH  063%=      5-min Rain = 0
KMC4 140924Z 05003KT 26/19 A3004 RMK A01 T02640188  RH  063%=      5-min Rain = 0
KMC4 140925Z 05003KT 26/19 A3004 RMK A01 T02640189  RH  063%=      5-min Rain = 0
KMC4 140926Z 05003KT 26/19 A3004 RMK A01 T02640189  RH  063%=      5-min Rain = 0
KMC4 140927Z 06003KT 26/19 A3004 RMK A01 T02640188  RH  063%=      5-min Rain = 0
KMC4 140928Z 07003KT 26/19 A3004 RMK A01 T02640188  RH  063%=      5-min Rain = 0
KMC4 140929Z 08003KT 26/19 A3004 RMK A01 T02640187  RH  063%=      5-min Rain = 0
KMC4 140930Z 09003KT 26/19 A3004 RMK A01 T02640186  RH  062%=      5-min Rain = 0
KMC4 140931Z 08003KT 26/19 A3004 RMK A01 T02640186  RH  062%=      5-min Rain = 0
KMC4 140932Z 07003KT 26/19 A3004 RMK A01 T02630186  RH  062%=      5-min Rain = 0
KMC4 140933Z 06003KT 26/19 A3004 RMK A01 T02630186  RH  062%=      5-min Rain = 0
KMC4 140934Z 05004KT 26/19 A3004 RMK A01 T02630185  RH  062%=      5-min Rain = 0
KMC4 140935Z 05004KT 26/19 A3004 RMK A01 T02630185  RH  062%=      5-min Rain = 0
KMC4 140936Z 06004KT 26/19 A3004 RMK A01 T02630185  RH  062%=      5-min Rain = 0
KMC4 140937Z 07003KT 26/19 A3004 RMK A01 T02630185  RH  062%=      5-min Rain = 0
KMC4 140938Z 08003KT 26/18 A3004 RMK A01 T02630184  RH  062%=      5-min Rain = 0
KMC4 140939Z 09003KT 26/18 A3003 RMK A01 T02630184  RH  062%=      5-min Rain = 0
KMC4 140940Z 08004KT 26/18 A3003 RMK A01 T02630183  RH  062%=      5-min Rain = 0
KMC4 140941Z 07004KT 26/18 A3003 RMK A01 T02630184  RH  062%=      5-min Rain = 0
KMC4 140942Z 07004KT 26/18 A3003 RMK A01 T02630184  RH  062%=      5-min Rain = 0
KMC4 140943Z 06004KT 26/18 A3003 RMK A01 T02630184  RH  062%=      5-min Rain = 0
KMC4 140944Z 07003KT 26/18 A3003 RMK A01 T02630183  RH  061%=      5-min Rain = 0
KMC4 140945Z 07003KT 26/18 A3003 RMK A01 T02630182  RH  061%=      5-min Rain = 0
KMC4 140946Z 06002KT 26/18 A3003 RMK A01 T02630183  RH  061%=      5-min Rain = 0
KMC4 140947Z 07002KT 26/18 A3003 RMK A01 T02630183  RH  061%=      5-min Rain = 0
KMC4 140948Z 07002KT 26/18 A3003 RMK A01 T02630182  RH  061%=      5-min Rain = 0
KMC4 140949Z 08002KT 26/18 A3003 RMK A01 T02630182  RH  061%=      5-min Rain = 0
KMC4 140950Z 08002KT 26/18 A3003 RMK A01 T02630182  RH  061%=      5-min Rain = 0
KMC4 140951Z 08002KT 26/18 A3003 RMK A01 T02630182  RH  061%=      5-min Rain = 0
KMC4 140952Z 08001KT 26/18 A3002 RMK A01 T02630182  RH  061%=      5-min Rain = 0
KMC4 140953Z 09001KT 26/18 A3002 RMK A01 T02630181  RH  061%=      5-min Rain = 0
KMC4 140954Z 11001KT 26/18 A3002 RMK A01 T02630181  RH  061%=      5-min Rain = 0
KMC4 140955Z 13001KT 26/18 A3002 RMK A01 T02630182  RH  061%=      5-min Rain = 0
KMC4 140956Z 13001KT 26/18 A3002 RMK A01 T02620182  RH  061%=      5-min Rain = 0
KMC4 140957Z 13000KT 26/18 A3002 RMK A01 T02610182  RH  062%=      5-min Rain = 0
KMC4 140958Z 10000KT 26/18 A3002 RMK A01 T02600182  RH  062%=      5-min Rain = 0
KMC4 140959Z 09001KT 26/18 A3002 RMK A01 T02590182  RH  062%=      5-min Rain = 0
KMC4 141000Z 09000KT 26/18 A3002 RMK A01 T02590182  RH  063%=      5-min Rain = 0
KMC4 141001Z 10000KT 26/18 A3002 RMK A01 T02580182  RH  063%=      5-min Rain = 0
KMC4 141002Z 00000KT 26/18 A3002 RMK A01 T02570182  RH  063%=      5-min Rain = 0
KMC4 141003Z 00000KT 26/18 A3002 RMK A01 T02570182  RH  063%=      5-min Rain = 0
KMC4 141004Z 10000KT 26/18 A3002 RMK A01 T02570182  RH  063%=      5-min Rain = 0
KMC4 141005Z 10000KT 26/18 A3002 RMK A01 T02560182  RH  063%=      5-min Rain = 0
KMC4 141006Z 00000KT 26/18 A3002 RMK A01 T02560182  RH  063%=      5-min Rain = 0
KMC4 141007Z 00000KT 26/18 A3002 RMK A01 T02560182  RH  063%=      5-min Rain = 0
KMC4 141008Z 00000KT 26/18 A3002 RMK A01 T02560181  RH  063%=      5-min Rain = 0
KMC4 141009Z 00000KT 26/18 A3002 RMK A01 T02560181  RH  063%=      5-min Rain = 0
KMC4 141010Z 00000KT 26/18 A3002 RMK A01 T02560182  RH  064%=      5-min Rain = 0
KMC4 141011Z 01000KT 26/18 A3002 RMK A01 T02560182  RH  064%=      5-min Rain = 0
KMC4 141012Z 01001KT 26/18 A3002 RMK A01 T02550182  RH  064%=      5-min Rain = 0
KMC4 141013Z 01001KT 26/18 A3002 RMK A01 T02550182  RH  064%=      5-min Rain = 0
KMC4 141014Z 01001KT 26/18 A3003 RMK A01 T02550184  RH  065%=      5-min Rain = 0
KMC4 141015Z 01000KT 26/19 A3003 RMK A01 T02550185  RH  065%=      5-min Rain = 0
KMC4 141016Z 00000KT 26/18 A3003 RMK A01 T02550184  RH  065%=      5-min Rain = 0
KMC4 141017Z 00000KT 26/18 A3003 RMK A01 T02550183  RH  065%=      5-min Rain = 0
KMC4 141018Z 00000KT 26/18 A3003 RMK A01 T02550183  RH  064%=      5-min Rain = 0
KMC4 141019Z 00000KT 26/18 A3003 RMK A01 T02550183  RH  064%=      5-min Rain = 0
KMC4 141020Z 23001KT 26/18 A3003 RMK A01 T02550184  RH  065%=      5-min Rain = 0
KMC4 141021Z 23001KT 26/18 A3003 RMK A01 T02550184  RH  065%=      5-min Rain = 0
KMC4 141022Z 22002KT 26/18 A3003 RMK A01 T02550182  RH  064%=      5-min Rain = 0
KMC4 141023Z 22002KT 25/18 A3003 RMK A01 T02540183  RH  065%=      5-min Rain = 0
KMC4 141024Z 21002KT 25/18 A3003 RMK A01 T02520183  RH  065%=      5-min Rain = 0
KMC4 141025Z 22002KT 25/18 A3003 RMK A01 T02520183  RH  066%=      5-min Rain = 0
KMC4 141026Z 22002KT 25/18 A3003 RMK A01 T02510183  RH  066%=      5-min Rain = 0
KMC4 141027Z 22002KT 25/18 A3003 RMK A01 T02510183  RH  066%=      5-min Rain = 0
KMC4 141028Z 22002KT 25/18 A3003 RMK A01 T02510183  RH  066%=      5-min Rain = 0
KMC4 141029Z 21002KT 25/18 A3003 RMK A01 T02500183  RH  066%=      5-min Rain = 0
KMC4 141030Z 21002KT 25/18 A3003 RMK A01 T02510183  RH  066%=      5-min Rain = 0
KMC4 141031Z 21002KT 25/18 A3003 RMK A01 T02510182  RH  066%=      5-min Rain = 0
KMC4 141032Z 21002KT 25/18 A3003 RMK A01 T02510181  RH  065%=      5-min Rain = 0
KMC4 141033Z 21002KT 25/18 A3003 RMK A01 T02510181  RH  065%=      5-min Rain = 0
KMC4 141034Z 21002KT 25/18 A3003 RMK A01 T02510181  RH  065%=      5-min Rain = 0
KMC4 141035Z 20002KT 25/18 A3003 RMK A01 T02510180  RH  065%=      5-min Rain = 0
KMC4 141036Z 20002KT 25/18 A3003 RMK A01 T02510180  RH  064%=      5-min Rain = 0
KMC4 141037Z 19002KT 25/18 A3003 RMK A01 T02510180  RH  064%=      5-min Rain = 0
KMC4 141038Z 19002KT 25/18 A3003 RMK A01 T02520180  RH  064%=      5-min Rain = 0
KMC4 141039Z 19002KT 25/18 A3003 RMK A01 T02520180  RH  064%=      5-min Rain = 0
KMC4 141040Z 18002KT 25/18 A3003 RMK A01 T02520179  RH  064%=      5-min Rain = 0
KMC4 141041Z 18002KT 25/18 A3003 RMK A01 T02520180  RH  064%=      5-min Rain = 0
KMC4 141042Z 18002KT 25/18 A3003 RMK A01 T02520181  RH  065%=      5-min Rain = 0
KMC4 141043Z 18001KT 25/18 A3003 RMK A01 T02510180  RH  065%=      5-min Rain = 0
KMC4 141044Z 18001KT 25/18 A3003 RMK A01 T02500180  RH  065%=      5-min Rain = 0
KMC4 141045Z 17001KT 25/18 A3003 RMK A01 T02500180  RH  065%=      5-min Rain = 0
KMC4 141046Z 17002KT 25/18 A3003 RMK A01 T02490181  RH  066%=      5-min Rain = 0
KMC4 141047Z 16002KT 25/18 A3003 RMK A01 T02490181  RH  066%=      5-min Rain = 0
KMC4 141048Z 16002KT 25/18 A3003 RMK A01 T02480180  RH  066%=      5-min Rain = 0
KMC4 141049Z 15001KT 25/18 A3003 RMK A01 T02480180  RH  066%=      5-min Rain = 0
KMC4 141050Z 15001KT 25/18 A3003 RMK A01 T02480180  RH  066%=      5-min Rain = 0
KMC4 141051Z 14001KT 25/18 A3003 RMK A01 T02480180  RH  066%=      5-min Rain = 0
KMC4 141052Z 14002KT 25/18 A3003 RMK A01 T02480179  RH  065%=      5-min Rain = 0
KMC4 141053Z 14002KT 25/18 A3003 RMK A01 T02490179  RH  065%=      5-min Rain = 0
KMC4 141054Z 14002KT 25/18 A3003 RMK A01 T02490178  RH  065%=      5-min Rain = 0
KMC4 141055Z 15002KT 25/18 A3003 RMK A01 T02480178  RH  065%=      5-min Rain = 0
KMC4 141056Z 15002KT 25/18 A3003 RMK A01 T02490179  RH  065%=      5-min Rain = 0
KMC4 141057Z 15002KT 25/18 A3003 RMK A01 T02490179  RH  065%=      5-min Rain = 0
KMC4 141058Z 14002KT 25/18 A3003 RMK A01 T02480178  RH  065%=      5-min Rain = 0
KMC4 141059Z 14002KT 25/18 A3004 RMK A01 T02480179  RH  065%=      5-min Rain = 0
KMC4 141100Z 14002KT 25/18 A3004 RMK A01 T02480178  RH  065%=      5-min Rain = 0
KMC4 141101Z 13002KT 25/18 A3003 RMK A01 T02480177  RH  064%=      5-min Rain = 0
KMC4 141102Z 13002KT 25/18 A3004 RMK A01 T02490177  RH  064%=      5-min Rain = 0
KMC4 141103Z 13002KT 25/18 A3004 RMK A01 T02490177  RH  064%=      5-min Rain = 0
KMC4 141104Z 14001KT 25/18 A3004 RMK A01 T02490177  RH  064%=      5-min Rain = 0
KMC4 141105Z 14001KT 25/18 A3004 RMK A01 T02490177  RH  064%=      5-min Rain = 0
KMC4 141106Z 14001KT 25/18 A3004 RMK A01 T02490177  RH  064%=      5-min Rain = 0
KMC4 141107Z 15001KT 25/18 A3004 RMK A01 T02490177  RH  064%=      5-min Rain = 0
KMC4 141108Z 15001KT 25/18 A3004 RMK A01 T02480176  RH  064%=      5-min Rain = 0
KMC4 141109Z 17001KT 25/18 A3004 RMK A01 T02480176  RH  064%=      5-min Rain = 0
KMC4 141110Z 16001KT 25/18 A3004 RMK A01 T02480176  RH  064%=      5-min Rain = 0
KMC4 141111Z 16001KT 25/18 A3004 RMK A01 T02480176  RH  064%=      5-min Rain = 0
KMC4 141112Z 17001KT 25/18 A3004 RMK A01 T02480176  RH  064%=      5-min Rain = 0
KMC4 141113Z 15000KT 25/18 A3004 RMK A01 T02480175  RH  063%=      5-min Rain = 0
KMC4 141114Z 14001KT 25/18 A3004 RMK A01 T02490175  RH  063%=      5-min Rain = 0
KMC4 141115Z 11000KT 25/17 A3004 RMK A01 T02500174  RH  063%=      5-min Rain = 0
KMC4 141116Z 13000KT 25/18 A3004 RMK A01 T02500175  RH  063%=      5-min Rain = 0
KMC4 141117Z 19000KT 25/17 A3004 RMK A01 T02500174  RH  063%=      5-min Rain = 0
KMC4 141118Z 12001KT 25/18 A3004 RMK A01 T02510175  RH  063%=      5-min Rain = 0
KMC4 141119Z 12000KT 25/18 A3004 RMK A01 T02520175  RH  063%=      5-min Rain = 0
KMC4 141120Z 19001KT 25/18 A3004 RMK A01 T02520176  RH  063%=      5-min Rain = 0
KMC4 141121Z 18000KT 25/18 A3004 RMK A01 T02520175  RH  062%=      5-min Rain = 0
KMC4 141122Z 00000KT 25/18 A3004 RMK A01 T02520175  RH  062%=      5-min Rain = 0
KMC4 141123Z 00000KT 25/18 A3004 RMK A01 T02520175  RH  062%=      5-min Rain = 0
KMC4 141124Z 00000KT 25/18 A3004 RMK A01 T02520175  RH  062%=      5-min Rain = 0
KMC4 141125Z 00000KT 25/18 A3004 RMK A01 T02520175  RH  062%=      5-min Rain = 0
KMC4 141126Z 00000KT 25/18 A3004 RMK A01 T02520175  RH  062%=      5-min Rain = 0
KMC4 141127Z 00000KT 25/18 A3004 RMK A01 T02520175  RH  062%=      5-min Rain = 0
KMC4 141128Z 00000KT 25/18 A3005 RMK A01 T02520175  RH  062%=      5-min Rain = 0
KMC4 141129Z 00000KT 25/18 A3005 RMK A01 T02520175  RH  062%=      5-min Rain = 0
KMC4 141130Z 00000KT 25/18 A3005 RMK A01 T02520175  RH  062%=      5-min Rain = 0
KMC4 141131Z 00000KT 25/18 A3005 RMK A01 T02520175  RH  062%=      5-min Rain = 0
KMC4 141132Z 00000KT 25/18 A3005 RMK A01 T02530175  RH  062%=      5-min Rain = 0
KMC4 141133Z 00000KT 25/18 A3005 RMK A01 T02540175  RH  062%=      5-min Rain = 0
KMC4 141134Z 00000KT 25/18 A3005 RMK A01 T02540176  RH  062%=      5-min Rain = 0
KMC4 141135Z 00000KT 25/18 A3005 RMK A01 T02540175  RH  062%=      5-min Rain = 0
KMC4 141136Z 00000KT 25/18 A3005 RMK A01 T02540175  RH  062%=      5-min Rain = 0
KMC4 141137Z 00000KT 25/18 A3005 RMK A01 T02540175  RH  062%=      5-min Rain = 0
KMC4 141138Z 00000KT 25/18 A3005 RMK A01 T02540176  RH  062%=      5-min Rain = 0
KMC4 141139Z 00000KT 25/18 A3005 RMK A01 T02530176  RH  062%=      5-min Rain = 0
KMC4 141140Z 00000KT 25/18 A3005 RMK A01 T02530178  RH  063%=      5-min Rain = 0
KMC4 141141Z 00000KT 25/18 A3005 RMK A01 T02530179  RH  063%=      5-min Rain = 0
KMC4 141142Z 00000KT 25/18 A3005 RMK A01 T02530179  RH  064%=      5-min Rain = 0
KMC4 141143Z 00000KT 25/18 A3005 RMK A01 T02520178  RH  063%=      5-min Rain = 0
KMC4 141144Z 00000KT 25/18 A3005 RMK A01 T02510178  RH  064%=      5-min Rain = 0
KMC4 141145Z 13000KT 25/18 A3006 RMK A01 T02510178  RH  064%=      5-min Rain = 0
KMC4 141146Z 13001KT 25/18 A3006 RMK A01 T02500177  RH  064%=      5-min Rain = 0
KMC4 141147Z 13001KT 25/18 A3006 RMK A01 T02490177  RH  064%=      5-min Rain = 0
KMC4 141148Z 14001KT 25/18 A3006 RMK A01 T02480177  RH  065%=      5-min Rain = 0
KMC4 141149Z 14001KT 25/18 A3006 RMK A01 T02470178  RH  065%=      5-min Rain = 0
KMC4 141150Z 14002KT 25/18 A3006 RMK A01 T02460178  RH  066%=      5-min Rain = 0
KMC4 141151Z 14002KT 25/18 A3006 RMK A01 T02450178  RH  066%=      5-min Rain = 0
KMC4 141152Z 13002KT 24/18 A3006 RMK A01 T02440178  RH  067%=      5-min Rain = 0
KMC4 141153Z 12002KT 24/18 A3006 RMK A01 T02430178  RH  067%=      5-min Rain = 0
KMC4 141154Z 12002KT 24/18 A3006 RMK A01 T02430178  RH  067%=      5-min Rain = 0
KMC4 141155Z 12002KT 24/18 A3006 RMK A01 T02440178  RH  067%=      5-min Rain = 0
KMC4 141156Z 12002KT 24/18 A3006 RMK A01 T02440177  RH  066%=      5-min Rain = 0
KMC4 141157Z 12002KT 25/18 A3006 RMK A01 T02450177  RH  066%=      5-min Rain = 0
KMC4 141158Z 12001KT 25/18 A3006 RMK A01 T02460177  RH  065%=      5-min Rain = 0
KMC4 141159Z 12001KT 25/18 A3006 RMK A01 T02460177  RH  065%=      5-min Rain = 0
KMC4 141200Z 12001KT 25/18 A3006 RMK A01 T02470177  RH  065%=      5-min Rain = 0
KMC4 141201Z 11001KT 25/18 A3006 RMK A01 T02480178  RH  065%=      5-min Rain = 0
KMC4 141202Z 08001KT 25/18 A3006 RMK A01 T02480178  RH  065%=      5-min Rain = 0
KMC4 141203Z 06001KT 25/18 A3006 RMK A01 T02490178  RH  065%=      5-min Rain = 0
KMC4 141204Z 05002KT 25/18 A3006 RMK A01 T02480178  RH  065%=      5-min Rain = 0
KMC4 141205Z 05001KT 25/18 A3006 RMK A01 T02490178  RH  065%=      5-min Rain = 0
KMC4 141206Z 05001KT 25/18 A3006 RMK A01 T02490179  RH  065%=      5-min Rain = 0
KMC4 141207Z 06001KT 25/18 A3006 RMK A01 T02480178  RH  065%=      5-min Rain = 0
KMC4 141208Z 05002KT 25/18 A3006 RMK A01 T02490179  RH  065%=      5-min Rain = 0
KMC4 141209Z 03002KT 25/18 A3006 RMK A01 T02490180  RH  066%=      5-min Rain = 0
KMC4 141210Z 02003KT 25/18 A3006 RMK A01 T02490182  RH  067%=      5-min Rain = 0
KMC4 141211Z 00003KT 25/18 A3006 RMK A01 T02490184  RH  067%=      5-min Rain = 0
KMC4 141212Z 36004KT 25/19 A3007 RMK A01 T02480190  RH  070%=      5-min Rain = 0
KMC4 141213Z 00004KT 25/19 A3007 RMK A01 T02460191  RH  071%=      5-min Rain = 0
KMC4 141214Z 00003KT 24/19 A3007 RMK A01 T02440190  RH  072%=      5-min Rain = 0
KMC4 141215Z 01003KT 24/19 A3007 RMK A01 T02430190  RH  072%=      5-min Rain = 0
KMC4 141216Z 01003KT 24/19 A3007 RMK A01 T02430189  RH  072%=      5-min Rain = 0
KMC4 141217Z 01003KT 24/19 A3007 RMK A01 T02430189  RH  072%=      5-min Rain = 0
KMC4 141218Z 01003KT 24/19 A3007 RMK A01 T02430189  RH  072%=      5-min Rain = 0
KMC4 141219Z 36003KT 24/19 A3007 RMK A01 T02430189  RH  072%=      5-min Rain = 0
KMC4 141220Z 00004KT 24/19 A3007 RMK A01 T02430190  RH  072%=      5-min Rain = 0
KMC4 141221Z 01003KT 24/19 A3007 RMK A01 T02420190  RH  073%=      5-min Rain = 0
KMC4 141222Z 00003KT 24/19 A3007 RMK A01 T02420191  RH  073%=      5-min Rain = 0
KMC4 141223Z 00003KT 24/19 A3007 RMK A01 T02410189  RH  073%=      5-min Rain = 0
KMC4 141224Z 35004KT 24/19 A3007 RMK A01 T02410189  RH  073%=      5-min Rain = 0
KMC4 141225Z 35004KT 24/19 A3007 RMK A01 T02410190  RH  073%=      5-min Rain = 0
KMC4 141226Z 36004KT 24/19 A3007 RMK A01 T02400190  RH  074%=      5-min Rain = 0
KMC4 141227Z 36005KT 24/19 A3007 RMK A01 T02390189  RH  073%=      5-min Rain = 0
KMC4 141228Z 36005KT 24/19 A3007 RMK A01 T02390185  RH  072%=      5-min Rain = 0
KMC4 141229Z 00005KT 24/18 A3007 RMK A01 T02390183  RH  071%=      5-min Rain = 0
KMC4 141230Z 01004KT 24/18 A3007 RMK A01 T02410181  RH  069%=      5-min Rain = 0
KMC4 141231Z 01004KT 24/18 A3008 RMK A01 T02420180  RH  068%=      5-min Rain = 0
KMC4 141232Z 01004KT 24/18 A3008 RMK A01 T02430180  RH  068%=      5-min Rain = 0
KMC4 141233Z 02003KT 24/18 A3008 RMK A01 T02440180  RH  067%=      5-min Rain = 0
KMC4 141234Z 03004KT 24/18 A3008 RMK A01 T02440180  RH  067%=      5-min Rain = 0
KMC4 141235Z 02004KT 25/18 A3008 RMK A01 T02450180  RH  067%=      5-min Rain = 0
KMC4 141236Z 02002KT 25/18 A3008 RMK A01 T02450180  RH  067%=      5-min Rain = 0
KMC4 141237Z 02003KT 25/18 A3008 RMK A01 T02460180  RH  067%=      5-min Rain = 0
KMC4 141238Z 02002KT 25/18 A3008 RMK A01 T02460181  RH  067%=      5-min Rain = 0
KMC4 141239Z 01002KT 25/18 A3008 RMK A01 T02460180  RH  067%=      5-min Rain = 0
KMC4 141240Z 01002KT 25/18 A3008 RMK A01 T02460181  RH  067%=      5-min Rain = 0
KMC4 141241Z 36002KT 25/18 A3008 RMK A01 T02460180  RH  066%=      5-min Rain = 0
KMC4 141242Z 00002KT 25/18 A3008 RMK A01 T02470179  RH  066%=      5-min Rain = 0
KMC4 141243Z 35001KT 25/18 A3008 RMK A01 T02480179  RH  066%=      5-min Rain = 0
KMC4 141244Z 00000KT 25/18 A3008 RMK A01 T02480179  RH  066%=      5-min Rain = 0
KMC4 141245Z 01000KT 25/18 A3008 RMK A01 T02480179  RH  065%=      5-min Rain = 0
KMC4 141246Z 18000KT 25/18 A3008 RMK A01 T02490179  RH  065%=      5-min Rain = 0
KMC4 141247Z 16001KT 25/18 A3008 RMK A01 T02500180  RH  065%=      5-min Rain = 0
KMC4 141248Z 18001KT 25/18 A3008 RMK A01 T02500180  RH  065%=      5-min Rain = 0
KMC4 141249Z 16000KT 25/18 A3008 RMK A01 T02510180  RH  065%=      5-min Rain = 0
KMC4 141250Z 16000KT 25/18 A3008 RMK A01 T02510181  RH  065%=      5-min Rain = 0
KMC4 141251Z 00000KT 25/18 A3008 RMK A01 T02520181  RH  064%=      5-min Rain = 0
KMC4 141252Z 00000KT 25/18 A3008 RMK A01 T02530181  RH  064%=      5-min Rain = 0
KMC4 141253Z 16001KT 25/18 A3008 RMK A01 T02540182  RH  064%=      5-min Rain = 0
KMC4 141254Z 17001KT 25/18 A3007 RMK A01 T02530183  RH  065%=      5-min Rain = 0
KMC4 141255Z 18001KT 25/18 A3007 RMK A01 T02500183  RH  066%=      5-min Rain = 0
KMC4 141256Z 20001KT 25/18 A3007 RMK A01 T02480183  RH  067%=      5-min Rain = 0
KMC4 141257Z 22002KT 25/18 A3008 RMK A01 T02470183  RH  067%=      5-min Rain = 0
KMC4 141258Z 20002KT 25/18 A3008 RMK A01 T02460184  RH  068%=      5-min Rain = 0
KMC4 141259Z 18002KT 25/18 A3008 RMK A01 T02450183  RH  068%=      5-min Rain = 0
KMC4 141300Z 17002KT 25/18 A3008 RMK A01 T02450183  RH  068%=      5-min Rain = 0
KMC4 141301Z 17002KT 25/18 A3008 RMK A01 T02450183  RH  068%=      5-min Rain = 0
KMC4 141302Z 15002KT 25/18 A3008 RMK A01 T02450182  RH  068%=      5-min Rain = 0
KMC4 141303Z 16002KT 25/18 A3008 RMK A01 T02460182  RH  067%=      5-min Rain = 0
KMC4 141304Z 16002KT 25/18 A3008 RMK A01 T02470182  RH  067%=      5-min Rain = 0
KMC4 141305Z 16002KT 25/18 A3008 RMK A01 T02480183  RH  067%=      5-min Rain = 0
KMC4 141306Z 16002KT 25/18 A3008 RMK A01 T02490183  RH  067%=      5-min Rain = 0
KMC4 141307Z 14002KT 25/18 A3008 RMK A01 T02510182  RH  065%=      5-min Rain = 0
KMC4 141308Z 14002KT 25/18 A3008 RMK A01 T02530182  RH  065%=      5-min Rain = 0
KMC4 141309Z 12002KT 26/18 A3008 RMK A01 T02550182  RH  064%=      5-min Rain = 0
KMC4 141310Z 12003KT 26/18 A3008 RMK A01 T02550182  RH  064%=      5-min Rain = 0
KMC4 141311Z 11003KT 26/18 A3008 RMK A01 T02550183  RH  064%=      5-min Rain = 0
KMC4 141312Z 10003KT 25/18 A3008 RMK A01 T02540184  RH  065%=      5-min Rain = 0
KMC4 141313Z 09002KT 25/18 A3008 RMK A01 T02540183  RH  065%=      5-min Rain = 0
KMC4 141314Z 09002KT 25/18 A3008 RMK A01 T02530184  RH  065%=      5-min Rain = 0
KMC4 141315Z 09002KT 25/18 A3008 RMK A01 T02540183  RH  065%=      5-min Rain = 0
KMC4 141316Z 10002KT 26/18 A3008 RMK A01 T02550183  RH  064%=      5-min Rain = 0
KMC4 141317Z 08002KT 26/18 A3008 RMK A01 T02560183  RH  064%=      5-min Rain = 0
KMC4 141318Z 07003KT 26/18 A3008 RMK A01 T02580183  RH  063%=      5-min Rain = 0
KMC4 141319Z 07003KT 26/18 A3008 RMK A01 T02590183  RH  063%=      5-min Rain = 0
KMC4 141320Z 07003KT 26/18 A3008 RMK A01 T02610181  RH  062%=      5-min Rain = 0
KMC4 141321Z 08004KT 26/18 A3009 RMK A01 T02610178  RH  060%=      5-min Rain = 0
KMC4 141322Z 09004KT 26/18 A3009 RMK A01 T02630180  RH  060%=      5-min Rain = 0
KMC4 141323Z 08004KT 26/18 A3009 RMK A01 T02630179  RH  060%=      5-min Rain = 0
KMC4 141324Z 08003KT 26/18 A3009 RMK A01 T02630180  RH  060%=      5-min Rain = 0
KMC4 141325Z 08003KT 26/18 A3009 RMK A01 T02640180  RH  060%=      5-min Rain = 0
KMC4 141326Z 08003KT 27/18 A3009 RMK A01 T02650181  RH  060%=      5-min Rain = 0
KMC4 141327Z 07003KT 27/18 A3009 RMK A01 T02660180  RH  059%=      5-min Rain = 0
KMC4 141328Z 09004KT 27/18 A3009 RMK A01 T02670179  RH  058%=      5-min Rain = 0
KMC4 141329Z 08003KT 27/17 A3009 RMK A01 T02680174  RH  057%=      5-min Rain = 0
KMC4 141330Z 09003KT 27/18 A3009 RMK A01 T02680175  RH  057%=      5-min Rain = 0
KMC4 141331Z 08004KT 27/18 A3009 RMK A01 T02680175  RH  057%=      5-min Rain = 0
KMC4 141332Z 07004KT 27/18 A3009 RMK A01 T02680175  RH  056%=      5-min Rain = 0
KMC4 141333Z 07004KT 27/18 A3009 RMK A01 T02680176  RH  057%=      5-min Rain = 0
KMC4 141334Z 06003KT 27/18 A3009 RMK A01 T02690176  RH  057%=      5-min Rain = 0
KMC4 141335Z 06004KT 27/18 A3009 RMK A01 T02700176  RH  056%=      5-min Rain = 0
KMC4 141336Z 06004KT 27/18 A3009 RMK A01 T02710176  RH  056%=      5-min Rain = 0
KMC4 141337Z 06004KT 27/18 A3009 RMK A01 T02710176  RH  056%=      5-min Rain = 0
KMC4 141338Z 05004KT 27/18 A3009 RMK A01 T02720176  RH  056%=      5-min Rain = 0
KMC4 141339Z 06004KT 27/18 A3009 RMK A01 T02730176  RH  056%=      5-min Rain = 0
KMC4 141340Z 06004KT 27/18 A3009 RMK A01 T02730176  RH  055%=      5-min Rain = 0
KMC4 141341Z 06004KT 27/18 A3009 RMK A01 T02740177  RH  055%=      5-min Rain = 0
KMC4 141342Z 06003KT 27/18 A3009 RMK A01 T02740176  RH  055%=      5-min Rain = 0
KMC4 141343Z 06003KT 28/18 A3009 RMK A01 T02750177  RH  055%=      5-min Rain = 0
KMC4 141344Z 06003KT 28/18 A3009 RMK A01 T02750177  RH  055%=      5-min Rain = 0
KMC4 141345Z 07003KT 28/18 A3009 RMK A01 T02760177  RH  055%=      5-min Rain = 0
KMC4 141346Z 06002KT 28/18 A3009 RMK A01 T02770177  RH  055%=      5-min Rain = 0
KMC4 141347Z 06003KT 28/18 A3009 RMK A01 T02780177  RH  054%=      5-min Rain = 0
KMC4 141348Z 06003KT 28/18 A3009 RMK A01 T02780176  RH  054%=      5-min Rain = 0
KMC4 141349Z 05003KT 28/18 A3009 RMK A01 T02780177  RH  054%=      5-min Rain = 0
KMC4 141350Z 05003KT 28/18 A3009 RMK A01 T02780177  RH  054%=      5-min Rain = 0
KMC4 141351Z 05002KT 28/18 A301 RMK A01 T02780176  RH  054%=      5-min Rain = 0
KMC4 141352Z 06002KT 28/18 A301 RMK A01 T02790177  RH  054%=      5-min Rain = 0
KMC4 141353Z 07002KT 28/18 A301 RMK A01 T02800176  RH  053%=      5-min Rain = 0
KMC4 141354Z 06002KT 28/18 A301 RMK A01 T02800175  RH  053%=      5-min Rain = 0
KMC4 141355Z 06001KT 28/18 A301 RMK A01 T02810176  RH  053%=      5-min Rain = 0
KMC4 141356Z 07002KT 28/18 A301 RMK A01 T02830177  RH  053%=      5-min Rain = 0
KMC4 141357Z 05001KT 28/18 A301 RMK A01 T02840178  RH  053%=      5-min Rain = 0
KMC4 141358Z 04002KT 29/18 A301 RMK A01 T02850178  RH  052%=      5-min Rain = 0
KMC4 141359Z 02003KT 29/18 A301 RMK A01 T02860178  RH  052%=      5-min Rain = 0
KMC4 141400Z 02003KT 29/18 A301 RMK A01 T02860178  RH  052%=      5-min Rain = 0
KMC4 141401Z 02003KT 29/18 A301 RMK A01 T02860177  RH  052%=      5-min Rain = 0
KMC4 141402Z 01003KT 29/18 A301 RMK A01 T02860177  RH  052%=      5-min Rain = 0
KMC4 141403Z 01003KT 29/18 A301 RMK A01 T02850176  RH  052%=      5-min Rain = 0
KMC4 141404Z 03003KT 29/18 A301 RMK A01 T02850177  RH  052%=      5-min Rain = 0
KMC4 141405Z 03003KT 29/18 A301 RMK A01 T02860178  RH  052%=      5-min Rain = 0
KMC4 141406Z 04003KT 29/18 A301 RMK A01 T02870177  RH  051%=      5-min Rain = 0
KMC4 141407Z 04004KT 29/18 A301 RMK A01 T02880176  RH  051%=      5-min Rain = 0
KMC4 141408Z 02004KT 29/18 A301 RMK A01 T02880176  RH  051%=      5-min Rain = 0
KMC4 141409Z 02004KT 29/18 A301 RMK A01 T02890176  RH  051%=      5-min Rain = 0
KMC4 141410Z 02003KT 29/18 A301 RMK A01 T02880175  RH  051%=      5-min Rain = 0
KMC4 141411Z 03003KT 29/18 A301 RMK A01 T02870175  RH  051%=      5-min Rain = 0
KMC4 141412Z 03003KT 29/18 A301 RMK A01 T02880177  RH  051%=      5-min Rain = 0
KMC4 141413Z 02003KT 29/18 A301 RMK A01 T02890177  RH  051%=      5-min Rain = 0
KMC4 141414Z 02004KT 29/18 A301 RMK A01 T02900177  RH  051%=      5-min Rain = 0
KMC4 141415Z 03004KT 29/18 A301 RMK A01 T02900176  RH  050%=      5-min Rain = 0
KMC4 141416Z 04004KT 29/18 A301 RMK A01 T02900175  RH  050%=      5-min Rain = 0
KMC4 141417Z 03004KT 29/17 A301 RMK A01 T02910174  RH  049%=      5-min Rain = 0
KMC4 141418Z 03004KT 29/18 A301 RMK A01 T02910175  RH  049%=      5-min Rain = 0
KMC4 141419Z 01004KT 29/18 A301 RMK A01 T02920175  RH  049%=      5-min Rain = 0
KMC4 141420Z 01004KT 29/17 A3011 RMK A01 T02920173  RH  049%=      5-min Rain = 0
KMC4 141421Z 02004KT 29/17 A3011 RMK A01 T02920173  RH  049%=      5-min Rain = 0
KMC4 141422Z 00004KT 29/18 A301 RMK A01 T02930175  RH  049%=      5-min Rain = 0
KMC4 141423Z 00004KT 29/17 A301 RMK A01 T02930173  RH  048%=      5-min Rain = 0
KMC4 141424Z 01004KT 29/18 A301 RMK A01 T02930175  RH  049%=      5-min Rain = 0
KMC4 141425Z 35003KT 29/18 A301 RMK A01 T02940175  RH  049%=      5-min Rain = 0
KMC4 141426Z 36004KT 29/18 A301 RMK A01 T02940176  RH  049%=      5-min Rain = 0
KMC4 141427Z 36003KT 29/18 A301 RMK A01 T02930176  RH  049%=      5-min Rain = 0
KMC4 141428Z 03003KT 30/18 A301 RMK A01 T02950176  RH  049%=      5-min Rain = 0
KMC4 141429Z 02003KT 30/18 A301 RMK A01 T02960176  RH  049%=      5-min Rain = 0
KMC4 141430Z 35004KT 30/18 A301 RMK A01 T02970177  RH  048%=      5-min Rain = 0
KMC4 141431Z 35003KT 30/18 A301 RMK A01 T02980177  RH  048%=      5-min Rain = 0
KMC4 141432Z 02002KT 30/18 A301 RMK A01 T02990176  RH  048%=      5-min Rain = 0
KMC4 141433Z 04003KT 30/18 A301 RMK A01 T02990175  RH  047%=      5-min Rain = 0
KMC4 141434Z 03004KT 30/17 A301 RMK A01 T03010173  RH  046%=      5-min Rain = 0
KMC4 141435Z 36003KT 30/17 A301 RMK A01 T03020174  RH  046%=      5-min Rain = 0
KMC4 141436Z 36003KT 30/17 A301 RMK A01 T03020174  RH  046%=      5-min Rain = 0
KMC4 141437Z 00003KT 30/17 A301 RMK A01 T03010174  RH  046%=      5-min Rain = 0
KMC4 141438Z 36003KT 30/18 A301 RMK A01 T02990175  RH  047%=      5-min Rain = 0
KMC4 141439Z 36004KT 30/18 A301 RMK A01 T02990175  RH  047%=      5-min Rain = 0
KMC4 141440Z 35004KT 30/18 A301 RMK A01 T03000175  RH  047%=      5-min Rain = 0
KMC4 141441Z 34003KT 30/17 A301 RMK A01 T03010174  RH  047%=      5-min Rain = 0
KMC4 141442Z 34004KT 30/18 A301 RMK A01 T03010175  RH  047%=      5-min Rain = 0
KMC4 141443Z 34003KT 30/17 A301 RMK A01 T03010174  RH  047%=      5-min Rain = 0
KMC4 141444Z 01003KT 30/17 A301 RMK A01 T03020173  RH  046%=      5-min Rain = 0
KMC4 141445Z 03003KT 30/17 A301 RMK A01 T03020172  RH  046%=      5-min Rain = 0
KMC4 141446Z 03003KT 30/17 A301 RMK A01 T03040174  RH  046%=      5-min Rain = 0
KMC4 141447Z 05002KT 31/18 A301 RMK A01 T03050175  RH  046%=      5-min Rain = 0
KMC4 141448Z 01002KT 31/18 A301 RMK A01 T03050176  RH  046%=      5-min Rain = 0
KMC4 141449Z 01002KT 31/18 A3011 RMK A01 T03060176  RH  046%=      5-min Rain = 0
KMC4 141450Z 03002KT 31/18 A3011 RMK A01 T03070175  RH  045%=      5-min Rain = 0
KMC4 141451Z 35002KT 31/17 A3011 RMK A01 T03090174  RH  044%=      5-min Rain = 0
KMC4 141452Z 00003KT 31/18 A3011 RMK A01 T03100175  RH  045%=      5-min Rain = 0
KMC4 141453Z 00003KT 31/18 A3011 RMK A01 T03100175  RH  044%=      5-min Rain = 0
KMC4 141454Z 01004KT 31/17 A3011 RMK A01 T03100173  RH  044%=      5-min Rain = 0
KMC4 141455Z 01003KT 31/17 A3011 RMK A01 T03080172  RH  044%=      5-min Rain = 0
KMC4 141456Z 01004KT 31/17 A3011 RMK A01 T03070171  RH  044%=      5-min Rain = 0
KMC4 141457Z 34004KT 31/17 A3011 RMK A01 T03070171  RH  044%=      5-min Rain = 0
KMC4 141458Z 34004KT 31/17 A3011 RMK A01 T03070170  RH  044%=      5-min Rain = 0
KMC4 141459Z 34003KT 31/17 A3011 RMK A01 T03060168  RH  043%=      5-min Rain = 0
KMC4 141500Z 34004KT 31/17 A3011 RMK A01 T03060169  RH  044%=      5-min Rain = 0
KMC4 141501Z 34004KT 31/17 A3011 RMK A01 T03060170  RH  044%=      5-min Rain = 0
KMC4 141502Z 34004KT 31/17 A3011 RMK A01 T03060173  RH  045%=      5-min Rain = 0
KMC4 141503Z 34005KT 31/17 A3011 RMK A01 T03070174  RH  045%=      5-min Rain = 0
KMC4 141504Z 34005KT 31/17 A3011 RMK A01 T03060171  RH  044%=      5-min Rain = 0
KMC4 141505Z 32004KT 31/17 A3011 RMK A01 T03070170  RH  044%=      5-min Rain = 0
KMC4 141506Z 35004KT 31/17 A3011 RMK A01 T03080169  RH  043%=      5-min Rain = 0
KMC4 141507Z 01003KT 31/17 A3011 RMK A01 T03090169  RH  043%=      5-min Rain = 0
KMC4 141508Z 02003KT 31/17 A3011 RMK A01 T03100172  RH  044%=      5-min Rain = 0
KMC4 141509Z 35003KT 31/17 A3011 RMK A01 T03110172  RH  043%=      5-min Rain = 0
KMC4 141510Z 34004KT 31/17 A3011 RMK A01 T03120173  RH  043%=      5-min Rain = 0
KMC4 141511Z 01005KT 31/17 A3011 RMK A01 T03120171  RH  043%=      5-min Rain = 0
KMC4 141512Z 36004KT 31/17 A3011 RMK A01 T03110171  RH  043%=      5-min Rain = 0
KMC4 141513Z 01003KT 31/17 A3011 RMK A01 T03100171  RH  043%=      5-min Rain = 0
KMC4 141514Z 01003KT 31/17 A3011 RMK A01 T03090171  RH  043%=      5-min Rain = 0
KMC4 141515Z 03001KT 31/17 A3011 RMK A01 T03100171  RH  043%=      5-min Rain = 0
KMC4 141516Z 02002KT 31/17 A3011 RMK A01 T03100172  RH  044%=      5-min Rain = 0
KMC4 141517Z 03001KT 31/17 A3011 RMK A01 T03110172  RH  044%=      5-min Rain = 0
KMC4 141518Z 35003KT 31/17 A3011 RMK A01 T03120172  RH  043%=      5-min Rain = 0
KMC4 141519Z 32005KT 31/17 A3011 RMK A01 T03120169  RH  042%=      5-min Rain = 0
KMC4 141520Z 33005KT 31/17 A3011 RMK A01 T03130171  RH  043%=      5-min Rain = 0
KMC4 141521Z 33004KT 31/17 A3011 RMK A01 T03130173  RH  043%=      5-min Rain = 0
KMC4 141522Z 31002KT 31/17 A3012 RMK A01 T03110174  RH  044%=      5-min Rain = 0
KMC4 141523Z 32003KT 31/18 A3012 RMK A01 T03100175  RH  044%=      5-min Rain = 0
KMC4 141524Z 33002KT 31/17 A3012 RMK A01 T03100174  RH  044%=      5-min Rain = 0
KMC4 141525Z 34002KT 31/17 A3012 RMK A01 T03100174  RH  044%=      5-min Rain = 0
KMC4 141526Z 03002KT 31/17 A3012 RMK A01 T03110173  RH  044%=      5-min Rain = 0
KMC4 141527Z 02002KT 31/17 A3012 RMK A01 T03110173  RH  044%=      5-min Rain = 0
KMC4 141528Z 35003KT 31/18 A3012 RMK A01 T03110175  RH  044%=      5-min Rain = 0
KMC4 141529Z 02004KT 31/18 A3012 RMK A01 T03140175  RH  043%=      5-min Rain = 0
KMC4 141530Z 02006KT 32/18 A3012 RMK A01 T03150175  RH  043%=      5-min Rain = 0
KMC4 141531Z 02005KT 32/17 A3012 RMK A01 T03150174  RH  043%=      5-min Rain = 0
KMC4 141532Z 03005KT 31/17 A3012 RMK A01 T03140171  RH  042%=      5-min Rain = 0
KMC4 141533Z 02005KT 31/17 A3012 RMK A01 T03130173  RH  043%=      5-min Rain = 0
KMC4 141534Z 03005KT 31/17 A3012 RMK A01 T03140173  RH  043%=      5-min Rain = 0
KMC4 141535Z 02005KT 32/17 A3012 RMK A01 T03150172  RH  042%=      5-min Rain = 0
KMC4 141536Z 00005KT 31/17 A3012 RMK A01 T03140173  RH  043%=      5-min Rain = 0
KMC4 141537Z 35004KT 31/17 A3012 RMK A01 T03140173  RH  043%=      5-min Rain = 0
KMC4 141538Z 00005KT 32/17 A3012 RMK A01 T03150173  RH  043%=      5-min Rain = 0
KMC4 141539Z 35003KT 32/17 A3012 RMK A01 T03160172  RH  042%=      5-min Rain = 0
KMC4 141540Z 35001KT 32/17 A3012 RMK A01 T03160171  RH  042%=      5-min Rain = 0
KMC4 141541Z 34002KT 32/17 A3012 RMK A01 T03160171  RH  042%=      5-min Rain = 0
KMC4 141542Z 34002KT 32/17 A3012 RMK A01 T03170171  RH  041%=      5-min Rain = 0
KMC4 141543Z 23000KT 32/17 A3012 RMK A01 T03170170  RH  042%=      5-min Rain = 0
KMC4 141544Z 00003KT 32/17 A3012 RMK A01 T03160169  RH  041%=      5-min Rain = 0
KMC4 141545Z 01006KT 32/17 A3012 RMK A01 T03170168  RH  041%=      5-min Rain = 0
KMC4 141546Z 02003KT 32/17 A3012 RMK A01 T03180167  RH  041%=      5-min Rain = 0
KMC4 141547Z 01003KT 32/17 A3012 RMK A01 T03180170  RH  041%=      5-min Rain = 0
KMC4 141548Z 34004KT 32/17 A3012 RMK A01 T03180173  RH  042%=      5-min Rain = 0
KMC4 141549Z 33005KT 32/17 A3012 RMK A01 T03200174  RH  042%=      5-min Rain = 0
KMC4 141550Z 32004KT 32/17 A3013 RMK A01 T03200172  RH  041%=      5-min Rain = 0
KMC4 141551Z 34003KT 32/17 A3013 RMK A01 T03210173  RH  041%=      5-min Rain = 0
KMC4 141552Z 03003KT 32/17 A3013 RMK A01 T03200173  RH  041%=      5-min Rain = 0
KMC4 141553Z 02006KT 32/18 A3013 RMK A01 T03210176  RH  042%=      5-min Rain = 0
KMC4 141554Z 02006KT 32/18 A3013 RMK A01 T03230178  RH  042%=      5-min Rain = 0
KMC4 141555Z 05004KT 32/18 A3013 RMK A01 T03200178  RH  043%=      5-min Rain = 0
KMC4 141556Z 06003KT 32/18 A3013 RMK A01 T03180179  RH  043%=      5-min Rain = 0
KMC4 141557Z 00004KT 32/18 A3013 RMK A01 T03180179  RH  044%=      5-min Rain = 0
KMC4 141558Z 33005KT 32/18 A3013 RMK A01 T03200179  RH  043%=      5-min Rain = 0
KMC4 141559Z 34003KT 32/18 A3013 RMK A01 T03200178  RH  043%=      5-min Rain = 0
KMC4 141600Z 34005KT 32/18 A3013 RMK A01 T03180177  RH  043%=      5-min Rain = 0
KMC4 141601Z 33004KT 32/18 A3013 RMK A01 T03190176  RH  043%=      5-min Rain = 0
KMC4 141602Z 32003KT 32/18 A3013 RMK A01 T03190175  RH  042%=      5-min Rain = 0
KMC4 141603Z 34002KT 32/18 A3013 RMK A01 T03180175  RH  042%=      5-min Rain = 0
KMC4 141604Z 01002KT 32/18 A3013 RMK A01 T03190177  RH  043%=      5-min Rain = 0
KMC4 141605Z 36003KT 32/18 A3013 RMK A01 T03210177  RH  042%=      5-min Rain = 0
KMC4 141606Z 02004KT 32/18 A3013 RMK A01 T03210175  RH  042%=      5-min Rain = 0
KMC4 141607Z 03004KT 32/18 A3013 RMK A01 T03210176  RH  042%=      5-min Rain = 0
KMC4 141608Z 03002KT 32/18 A3013 RMK A01 T03220178  RH  042%=      5-min Rain = 0
KMC4 141609Z 35004KT 32/18 A3013 RMK A01 T03220178  RH  042%=      5-min Rain = 0
KMC4 141610Z 00002KT 32/18 A3013 RMK A01 T03230176  RH  042%=      5-min Rain = 0
KMC4 141611Z 34001KT 32/18 A3013 RMK A01 T03230177  RH  042%=      5-min Rain = 0
KMC4 141612Z 33003KT 32/18 A3013 RMK A01 T03230176  RH  042%=      5-min Rain = 0
KMC4 141613Z 34005KT 33/17 A3013 RMK A01 T03250174  RH  040%=      5-min Rain = 0
KMC4 141614Z 30003KT 33/17 A3013 RMK A01 T03260173  RH  040%=      5-min Rain = 0
KMC4 141615Z 29004KT 33/18 A3013 RMK A01 T03260176  RH  041%=      5-min Rain = 0
KMC4 141616Z 29003KT 33/17 A3013 RMK A01 T03270174  RH  040%=      5-min Rain = 0
KMC4 141617Z 27002KT 33/18 A3013 RMK A01 T03250175  RH  041%=      5-min Rain = 0
KMC4 141618Z 30002KT 33/17 A3013 RMK A01 T03250174  RH  041%=      5-min Rain = 0
KMC4 141619Z 32002KT 33/18 A3013 RMK A01 T03250175  RH  041%=      5-min Rain = 0
KMC4 141620Z 36004KT 33/18 A3013 RMK A01 T03270176  RH  040%=      5-min Rain = 0
KMC4 141621Z 34005KT 33/18 A3013 RMK A01 T03300177  RH  040%=      5-min Rain = 0
KMC4 141622Z 03003KT 33/18 A3013 RMK A01 T03300178  RH  040%=      5-min Rain = 0
KMC4 141623Z 03004KT 33/18 A3013 RMK A01 T03320177  RH  040%=      5-min Rain = 0
KMC4 141624Z 05003KT 33/18 A3013 RMK A01 T03330178  RH  040%=      5-min Rain = 0
KMC4 141625Z 07004KT 33/18 A3013 RMK A01 T03340177  RH  039%=      5-min Rain = 0
KMC4 141626Z 05004KT 33/18 A3013 RMK A01 T03320177  RH  040%=      5-min Rain = 0
KMC4 141627Z 07004KT 33/18 A3013 RMK A01 T03320178  RH  040%=      5-min Rain = 0
KMC4 141628Z 04005KT 33/18 A3013 RMK A01 T03300178  RH  040%=      5-min Rain = 0
KMC4 141629Z 03007KT 33/18 A3013 RMK A01 T03300180  RH  041%=      5-min Rain = 0
KMC4 141630Z 04006KT 33/18 A3013 RMK A01 T03300181  RH  041%=      5-min Rain = 0
KMC4 141631Z 03004KT 33/18 A3013 RMK A01 T03290182  RH  042%=      5-min Rain = 0
KMC4 141632Z 04003KT 33/18 A3013 RMK A01 T03310183  RH  042%=      5-min Rain = 0
KMC4 141633Z 03006KT 33/19 A3013 RMK A01 T03320185  RH  042%=      5-min Rain = 0
KMC4 141634Z 36008KT 33/19 A3013 RMK A01 T03320188  RH  043%=      5-min Rain = 0
KMC4 141635Z 05005KT 33/19 A3013 RMK A01 T03330186  RH  042%=      5-min Rain = 0
KMC4 141636Z 03006G11KT 33/19 A3013 RMK A01 T03340186  RH  042%=      5-min Rain = 0
KMC4 141637Z 03010KT 34/19 A3013 RMK A01 T03350188  RH  042%=      5-min Rain = 0
KMC4 141638Z 03013KT 33/19 A3013 RMK A01 T03320189  RH  043%=      5-min Rain = 0
KMC4 141639Z 03011KT 33/19 A3013 RMK A01 T03290191  RH  044%=      5-min Rain = 0
KMC4 141640Z 01012KT 33/19 A3013 RMK A01 T03280191  RH  044%=      5-min Rain = 0
KMC4 141641Z 36010KT 33/19 A3013 RMK A01 T03270192  RH  045%=      5-min Rain = 0
KMC4 141642Z 00010G15KT 33/19 A3013 RMK A01 T03260191  RH  045%=      5-min Rain = 0
KMC4 141643Z 01011KT 33/19 A3013 RMK A01 T03250191  RH  045%=      5-min Rain = 0
KMC4 141644Z 36010KT 33/19 A3013 RMK A01 T03250191  RH  045%=      5-min Rain = 0
KMC4 141645Z 34006KT 33/19 A3013 RMK A01 T03260190  RH  045%=      5-min Rain = 0
KMC4 141646Z 36006KT 33/19 A3013 RMK A01 T03260191  RH  045%=      5-min Rain = 0
KMC4 141647Z 36006KT 33/19 A3013 RMK A01 T03280191  RH  044%=      5-min Rain = 0
KMC4 141648Z 01010KT 33/19 A3013 RMK A01 T03290191  RH  044%=      5-min Rain = 0
KMC4 141649Z 01009KT 33/19 A3013 RMK A01 T03290190  RH  044%=      5-min Rain = 0
KMC4 141650Z 36010KT 33/19 A3013 RMK A01 T03280189  RH  044%=      5-min Rain = 0
KMC4 141651Z 00009KT 33/19 A3013 RMK A01 T03250188  RH  044%=      5-min Rain = 0
KMC4 141652Z 03010KT 32/19 A3013 RMK A01 T03240189  RH  045%=      5-min Rain = 0
KMC4 141653Z 02010KT 33/19 A3013 RMK A01 T03260190  RH  045%=      5-min Rain = 0
KMC4 141654Z 02006KT 33/19 A3013 RMK A01 T03280188  RH  044%=      5-min Rain = 0
KMC4 141655Z 00007KT 33/19 A3013 RMK A01 T03300189  RH  043%=      5-min Rain = 0
KMC4 141656Z 01005KT 33/19 A3013 RMK A01 T03300189  RH  043%=      5-min Rain = 0
KMC4 141657Z 02005KT 33/19 A3013 RMK A01 T03290188  RH  043%=      5-min Rain = 0
KMC4 141658Z 01006KT 33/19 A3013 RMK A01 T03300187  RH  043%=      5-min Rain = 0
KMC4 141659Z 36006KT 33/19 A3013 RMK A01 T03310185  RH  042%=      5-min Rain = 0
KMC4 141700Z 34006KT 33/19 A3013 RMK A01 T03290185  RH  043%=      5-min Rain = 0
KMC4 141701Z 35005KT 33/19 A3013 RMK A01 T03290185  RH  042%=      5-min Rain = 0
KMC4 141702Z 34010KT 33/19 A3013 RMK A01 T03290188  RH  043%=      5-min Rain = 0
KMC4 141703Z 34012KT 33/19 A3013 RMK A01 T03290193  RH  045%=      5-min Rain = 0
KMC4 141704Z 01013KT 33/19 A3013 RMK A01 T03290193  RH  045%=      5-min Rain = 0
KMC4 141705Z 02012KT 33/19 A3013 RMK A01 T03300194  RH  045%=      5-min Rain = 0
KMC4 141706Z 01012KT 33/20 A3013 RMK A01 T03310195  RH  045%=      5-min Rain = 0
KMC4 141707Z 01010KT 33/19 A3013 RMK A01 T03290194  RH  045%=      5-min Rain = 0
KMC4 141708Z 02011KT 33/19 A3013 RMK A01 T03290193  RH  045%=      5-min Rain = 0
KMC4 141709Z 02011KT 33/19 A3013 RMK A01 T03300193  RH  044%=      5-min Rain = 0
KMC4 141710Z 01010KT 33/19 A3013 RMK A01 T03290194  RH  045%=      5-min Rain = 0
KMC4 141711Z 01010KT 33/19 A3013 RMK A01 T03320194  RH  044%=      5-min Rain = 0
KMC4 141712Z 01007G12KT 33/19 A3013 RMK A01 T03320193  RH  044%=      5-min Rain = 0
KMC4 141713Z 35008KT 33/19 A3013 RMK A01 T03310193  RH  044%=      5-min Rain = 0
KMC4 141714Z 00010KT 33/19 A3013 RMK A01 T03310193  RH  044%=      5-min Rain = 0
KMC4 141715Z 01013KT 33/19 A3012 RMK A01 T03310193  RH  044%=      5-min Rain = 0
KMC4 141716Z 00013KT 33/19 A3013 RMK A01 T03290191  RH  044%=      5-min Rain = 0
KMC4 141717Z 36010KT 33/19 A3013 RMK A01 T03270191  RH  045%=      5-min Rain = 0
KMC4 141718Z 01010KT 33/19 A3013 RMK A01 T03280191  RH  044%=      5-min Rain = 0
KMC4 141719Z 01012KT 33/19 A3013 RMK A01 T03290190  RH  044%=      5-min Rain = 0
KMC4 141720Z 36011KT 33/19 A3013 RMK A01 T03280190  RH  044%=      5-min Rain = 0
KMC4 141721Z 34007KT 33/19 A3013 RMK A01 T03280189  RH  044%=      5-min Rain = 0
KMC4 141722Z 35007G14KT 33/19 A3013 RMK A01 T03280189  RH  044%=      5-min Rain = 0
KMC4 141723Z 00012G18KT 33/19 A3012 RMK A01 T03290193  RH  045%=      5-min Rain = 0
KMC4 141724Z 36013KT 33/19 A3012 RMK A01 T03290194  RH  045%=      5-min Rain = 0
KMC4 141725Z 01010KT 33/20 A3012 RMK A01 T03280196  RH  046%=      5-min Rain = 0
KMC4 141726Z 03012KT 33/20 A3012 RMK A01 T03320199  RH  046%=      5-min Rain = 0
KMC4 141727Z 04010KT 33/20 A3012 RMK A01 T03340197  RH  045%=      5-min Rain = 0
KMC4 141728Z 03011KT 34/20 A3012 RMK A01 T03360198  RH  044%=      5-min Rain = 0
KMC4 141729Z 01010G15KT 34/20 A3012 RMK A01 T03380198  RH  044%=      5-min Rain = 0
KMC4 141730Z 01012KT 34/20 A3012 RMK A01 T03390197  RH  043%=      5-min Rain = 0
KMC4 141731Z 00013KT 34/20 A3012 RMK A01 T03370196  RH  043%=      5-min Rain = 0
KMC4 141732Z 01008KT 33/20 A3012 RMK A01 T03340195  RH  044%=      5-min Rain = 0
KMC4 141733Z 02010KT 33/20 A3012 RMK A01 T03310196  RH  045%=      5-min Rain = 0
KMC4 141734Z 04008KT 33/20 A3012 RMK A01 T03340198  RH  045%=      5-min Rain = 0
KMC4 141735Z 03011KT 34/20 A3012 RMK A01 T03390198  RH  044%=      5-min Rain = 0
KMC4 141736Z 03012KT 34/20 A3012 RMK A01 T03400198  RH  044%=      5-min Rain = 0
KMC4 141737Z 04009KT 34/20 A3012 RMK A01 T03380199  RH  044%=      5-min Rain = 0
KMC4 141738Z 03014KT 34/20 A3012 RMK A01 T03380198  RH  044%=      5-min Rain = 0
KMC4 141739Z 02011KT 34/20 A3012 RMK A01 T03390197  RH  043%=      5-min Rain = 0
KMC4 141740Z 02009KT 34/20 A3012 RMK A01 T03380197  RH  043%=      5-min Rain = 0
KMC4 141741Z 04011KT 34/20 A3012 RMK A01 T03380197  RH  043%=      5-min Rain = 0
KMC4 141742Z 04011KT 34/20 A3012 RMK A01 T03400195  RH  043%=      5-min Rain = 0
KMC4 141743Z 05012KT 34/19 A3012 RMK A01 T03380194  RH  043%=      5-min Rain = 0
KMC4 141744Z 06009KT 34/20 A3012 RMK A01 T03370195  RH  043%=      5-min Rain = 0
KMC4 141745Z 07009KT 34/19 A3012 RMK A01 T03390193  RH  042%=      5-min Rain = 0
KMC4 141746Z 09010KT 34/19 A3012 RMK A01 T03370192  RH  042%=      5-min Rain = 0
KMC4 141747Z 06011KT 34/19 A3012 RMK A01 T03350192  RH  043%=      5-min Rain = 0
KMC4 141748Z 05010KT 34/19 A3012 RMK A01 T03350192  RH  043%=      5-min Rain = 0
KMC4 141749Z 04010KT 33/19 A3012 RMK A01 T03330192  RH  043%=      5-min Rain = 0
KMC4 141750Z 04007KT 33/19 A3012 RMK A01 T03330192  RH  044%=      5-min Rain = 0
KMC4 141751Z 02008G13KT 34/19 A3012 RMK A01 T03370193  RH  043%=      5-min Rain = 0
KMC4 141752Z 01008KT 34/19 A3012 RMK A01 T03390192  RH  042%=      5-min Rain = 0
KMC4 141753Z 03010KT 34/19 A3012 RMK A01 T03370192  RH  042%=      5-min Rain = 0
KMC4 141754Z 01008KT 34/19 A3012 RMK A01 T03390191  RH  042%=      5-min Rain = 0
KMC4 141755Z 01010KT 34/19 A3012 RMK A01 T03390190  RH  042%=      5-min Rain = 0
KMC4 141756Z 36008KT 34/19 A3012 RMK A01 T03380193  RH  042%=      5-min Rain = 0
KMC4 141757Z 01010KT 34/19 A3012 RMK A01 T03390193  RH  042%=      5-min Rain = 0
KMC4 141758Z 00012KT 34/19 A3012 RMK A01 T03390192  RH  042%=      5-min Rain = 0
KMC4 141759Z 01011KT 34/19 A3012 RMK A01 T03370192  RH  042%=      5-min Rain = 0
KMC4 141800Z 00008KT 34/19 A3012 RMK A01 T03350191  RH  043%=      5-min Rain = 0
KMC4 141801Z 00008KT 34/19 A3012 RMK A01 T03350190  RH  042%=      5-min Rain = 0
KMC4 141802Z 02010G15KT 34/19 A3012 RMK A01 T03350191  RH  043%=      5-min Rain = 0
KMC4 141803Z 03011KT 34/19 A3012 RMK A01 T03370191  RH  042%=      5-min Rain = 0
KMC4 141804Z 01008KT 34/19 A3012 RMK A01 T03370191  RH  042%=      5-min Rain = 0
KMC4 141805Z 05006KT 34/19 A3012 RMK A01 T03380190  RH  042%=      5-min Rain = 0
KMC4 141806Z 02009G14KT 34/19 A3012 RMK A01 T03360191  RH  043%=      5-min Rain = 0
KMC4 141807Z 00012KT 34/19 A3012 RMK A01 T03370192  RH  042%=      5-min Rain = 0
KMC4 141808Z 35011KT 34/19 A3012 RMK A01 T03360192  RH  043%=      5-min Rain = 0
KMC4 141809Z 36010KT 34/19 A3012 RMK A01 T03350191  RH  043%=      5-min Rain = 0
KMC4 141810Z 36006KT 33/19 A3012 RMK A01 T03340191  RH  043%=      5-min Rain = 0
KMC4 141811Z 01007G13KT 33/19 A3012 RMK A01 T03330190  RH  043%=      5-min Rain = 0
KMC4 141812Z 02009KT 33/19 A3012 RMK A01 T03330189  RH  043%=      5-min Rain = 0
KMC4 141813Z 03011KT 33/19 A3012 RMK A01 T03340188  RH  042%=      5-min Rain = 0
KMC4 141814Z 02010KT 34/19 A3012 RMK A01 T03360188  RH  042%=      5-min Rain = 0
KMC4 141815Z 01009KT 34/19 A3012 RMK A01 T03360189  RH  042%=      5-min Rain = 0
KMC4 141816Z 36004KT 34/19 A3012 RMK A01 T03370188  RH  042%=      5-min Rain = 0
KMC4 141817Z 01008G14KT 34/19 A3012 RMK A01 T03360187  RH  041%=      5-min Rain = 0
KMC4 141818Z 36009KT 34/19 A3012 RMK A01 T03380187  RH  041%=      5-min Rain = 0
KMC4 141819Z 33009KT 34/19 A3012 RMK A01 T03400186  RH  040%=      5-min Rain = 0
KMC4 141820Z 34007KT 34/19 A3012 RMK A01 T03390185  RH  040%=      5-min Rain = 0
KMC4 141821Z 36008KT 34/18 A3012 RMK A01 T03360182  RH  040%=      5-min Rain = 0
KMC4 141822Z 01008KT 34/18 A3012 RMK A01 T03360183  RH  040%=      5-min Rain = 0
KMC4 141823Z 01008KT 34/19 A3012 RMK A01 T03400185  RH  040%=      5-min Rain = 0
KMC4 141824Z 01008KT 34/18 A3011 RMK A01 T03410184  RH  039%=      5-min Rain = 0
KMC4 141825Z 36006KT 34/18 A3011 RMK A01 T03410182  RH  039%=      5-min Rain = 0
KMC4 141826Z 33007KT 34/18 A3011 RMK A01 T03410181  RH  039%=      5-min Rain = 0
KMC4 141827Z 36004KT 34/18 A3011 RMK A01 T03400180  RH  039%=      5-min Rain = 0
KMC4 141828Z 02002KT 34/18 A3011 RMK A01 T03400180  RH  039%=      5-min Rain = 0
KMC4 141829Z 02003KT 34/18 A3011 RMK A01 T03430182  RH  039%=      5-min Rain = 0
KMC4 141830Z 34002KT 35/19 A3011 RMK A01 T03470185  RH  038%=      5-min Rain = 0
KMC4 141831Z 05004KT 35/18 A3011 RMK A01 T03500183  RH  037%=      5-min Rain = 0
KMC4 141832Z 01006G13KT 35/19 A3011 RMK A01 T03510185  RH  038%=      5-min Rain = 0
KMC4 141833Z 01005KT 35/19 A3011 RMK A01 T03500187  RH  038%=      5-min Rain = 0
KMC4 141834Z 07004KT 35/19 A3011 RMK A01 T03490186  RH  038%=      5-min Rain = 0
KMC4 141835Z 08006KT 35/18 A3011 RMK A01 T03480183  RH  038%=      5-min Rain = 0
KMC4 141836Z 09006KT 35/18 A3011 RMK A01 T03470182  RH  038%=      5-min Rain = 0
KMC4 141837Z 07004KT 35/18 A3011 RMK A01 T03470183  RH  038%=      5-min Rain = 0
KMC4 141838Z 05006KT 35/18 A3011 RMK A01 T03490184  RH  038%=      5-min Rain = 0
KMC4 141839Z 02009KT 35/19 A3011 RMK A01 T03500185  RH  038%=      5-min Rain = 0
KMC4 141840Z 03006KT 35/18 A3011 RMK A01 T03470184  RH  038%=      5-min Rain = 0
KMC4 141841Z 06005KT 35/19 A3011 RMK A01 T03450185  RH  039%=      5-min Rain = 0
KMC4 141842Z 03010KT 35/19 A3011 RMK A01 T03460185  RH  039%=      5-min Rain = 0
KMC4 141843Z 03008KT 35/18 A3011 RMK A01 T03480184  RH  038%=      5-min Rain = 0
KMC4 141844Z 03006KT 35/19 A3011 RMK A01 T03530185  RH  037%=      5-min Rain = 0
KMC4 141845Z 07006KT 35/19 A3011 RMK A01 T03540185  RH  037%=      5-min Rain = 0
KMC4 141846Z 08008KT 35/18 A301 RMK A01 T03520183  RH  037%=      5-min Rain = 0
KMC4 141847Z 06008KT 35/18 A301 RMK A01 T03480183  RH  038%=      5-min Rain = 0
KMC4 141848Z 01010KT 35/18 A301 RMK A01 T03460184  RH  038%=      5-min Rain = 0
KMC4 141849Z 02009KT 35/18 A301 RMK A01 T03450184  RH  039%=      5-min Rain = 0
KMC4 141850Z 02007KT 34/18 A301 RMK A01 T03440183  RH  039%=      5-min Rain = 0
KMC4 141851Z 35007KT 34/18 A301 RMK A01 T03420182  RH  039%=      5-min Rain = 0
KMC4 141852Z 00006KT 34/18 A301 RMK A01 T03410182  RH  039%=      5-min Rain = 0
KMC4 141853Z 03007KT 34/18 A301 RMK A01 T03410181  RH  039%=      5-min Rain = 0
KMC4 141854Z 01006KT 34/18 A301 RMK A01 T03410180  RH  038%=      5-min Rain = 0
KMC4 141855Z 03003KT 34/18 A301 RMK A01 T03440181  RH  038%=      5-min Rain = 0
KMC4 141856Z 06002KT 35/18 A3009 RMK A01 T03470181  RH  037%=      5-min Rain = 0
KMC4 141857Z 02004KT 35/18 A3009 RMK A01 T03510182  RH  037%=      5-min Rain = 0
KMC4 141858Z 35002KT 35/18 A3009 RMK A01 T03520182  RH  037%=      5-min Rain = 0
KMC4 141859Z 01007G14KT 35/18 A3009 RMK A01 T03520182  RH  037%=      5-min Rain = 0
KMC4 141900Z 02011KT 35/19 A3009 RMK A01 T03510185  RH  038%=      5-min Rain = 0
KMC4 141901Z 01012KT 35/18 A3009 RMK A01 T03520183  RH  037%=      5-min Rain = 0
KMC4 141902Z 02008KT 35/19 A3009 RMK A01 T03490185  RH  038%=      5-min Rain = 0
KMC4 141903Z 00007KT 35/19 A3009 RMK A01 T03480186  RH  039%=      5-min Rain = 0
KMC4 141904Z 00009KT 35/19 A3009 RMK A01 T03460187  RH  039%=      5-min Rain = 0
KMC4 141905Z 01010KT 35/19 A3008 RMK A01 T03460189  RH  040%=      5-min Rain = 0
KMC4 141906Z 00012KT 35/19 A3008 RMK A01 T03480189  RH  039%=      5-min Rain = 0
KMC4 141907Z 01009KT 35/19 A3008 RMK A01 T03490188  RH  039%=      5-min Rain = 0
KMC4 141908Z 00011KT 35/19 A3008 RMK A01 T03490189  RH  039%=      5-min Rain = 0
KMC4 141909Z 02011KT 35/19 A3008 RMK A01 T03470188  RH  039%=      5-min Rain = 0
KMC4 141910Z 00006KT 35/19 A3008 RMK A01 T03460188  RH  039%=      5-min Rain = 0
KMC4 141911Z 02007KT 35/19 A3008 RMK A01 T03480190  RH  040%=      5-min Rain = 0
KMC4 141912Z 04010KT 35/19 A3008 RMK A01 T03530188  RH  038%=      5-min Rain = 0
KMC4 141913Z 03012KT 35/19 A3008 RMK A01 T03520189  RH  038%=      5-min Rain = 0
KMC4 141914Z 03012KT 35/19 A3008 RMK A01 T03530192  RH  039%=      5-min Rain = 0
KMC4 141915Z 02008KT 35/19 A3008 RMK A01 T03540191  RH  039%=      5-min Rain = 0
KMC4 141916Z 04008G13KT 35/19 A3008 RMK A01 T03510191  RH  039%=      5-min Rain = 0
KMC4 141917Z 04010KT 35/19 A3007 RMK A01 T03500188  RH  039%=      5-min Rain = 0
KMC4 141918Z 03012G17KT 35/19 A3007 RMK A01 T03500187  RH  038%=      5-min Rain = 0
KMC4 141919Z 03014KT 35/19 A3007 RMK A01 T03530187  RH  038%=      5-min Rain = 0
KMC4 141920Z 02008KT 35/19 A3007 RMK A01 T03510187  RH  038%=      5-min Rain = 0
KMC4 141921Z 00010KT 35/19 A3007 RMK A01 T03480187  RH  039%=      5-min Rain = 0
KMC4 141922Z 35006KT 34/19 A3007 RMK A01 T03440185  RH  039%=      5-min Rain = 0
KMC4 141923Z 02007KT 34/19 A3007 RMK A01 T03440186  RH  039%=      5-min Rain = 0
KMC4 141924Z 02009KT 35/19 A3007 RMK A01 T03460186  RH  039%=      5-min Rain = 0
KMC4 141925Z 03011KT 35/19 A3007 RMK A01 T03490185  RH  038%=      5-min Rain = 0
KMC4 141926Z 03013KT 35/19 A3007 RMK A01 T03490185  RH  038%=      5-min Rain = 0
KMC4 141927Z 02011KT 35/19 A3007 RMK A01 T03470185  RH  039%=      5-min Rain = 0
KMC4 141928Z 03011KT 35/19 A3007 RMK A01 T03470186  RH  039%=      5-min Rain = 0
KMC4 141929Z 03011KT 35/19 A3007 RMK A01 T03490187  RH  039%=      5-min Rain = 0
KMC4 141930Z 03008KT 35/19 A3007 RMK A01 T03500187  RH  038%=      5-min Rain = 0
KMC4 141931Z 04010KT 35/19 A3007 RMK A01 T03490186  RH  038%=      5-min Rain = 0
KMC4 141932Z 03009KT 35/19 A3007 RMK A01 T03500186  RH  038%=      5-min Rain = 0
KMC4 141933Z 02006KT 35/19 A3007 RMK A01 T03520188  RH  038%=      5-min Rain = 0
KMC4 141934Z 02008KT 35/19 A3007 RMK A01 T03540189  RH  038%=      5-min Rain = 0
KMC4 141935Z 03006KT 35/19 A3007 RMK A01 T03530189  RH  038%=      5-min Rain = 0
KMC4 141936Z 02005KT 35/19 A3007 RMK A01 T03520189  RH  038%=      5-min Rain = 0
KMC4 141937Z 04005KT 35/19 A3007 RMK A01 T03530189  RH  038%=      5-min Rain = 0
KMC4 141938Z 03006KT 35/19 A3006 RMK A01 T03530189  RH  038%=      5-min Rain = 0
KMC4 141939Z 02006KT 35/19 A3006 RMK A01 T03520189  RH  038%=      5-min Rain = 0
KMC4 141940Z 33003KT 35/19 A3006 RMK A01 T03500188  RH  038%=      5-min Rain = 0
KMC4 141941Z 01002KT 35/19 A3006 RMK A01 T03480188  RH  039%=      5-min Rain = 0
KMC4 141942Z 35003KT 35/19 A3006 RMK A01 T03480187  RH  039%=      5-min Rain = 0
KMC4 141943Z 35006KT 35/19 A3006 RMK A01 T03500188  RH  039%=      5-min Rain = 0
KMC4 141944Z 02008KT 35/19 A3006 RMK A01 T03520189  RH  038%=      5-min Rain = 0
KMC4 141945Z 03009KT 35/19 A3006 RMK A01 T03530188  RH  038%=      5-min Rain = 0
KMC4 141946Z 00006KT 35/19 A3006 RMK A01 T03520187  RH  038%=      5-min Rain = 0
KMC4 141947Z 02005KT 35/19 A3006 RMK A01 T03510187  RH  038%=      5-min Rain = 0
KMC4 141948Z 05004KT 35/19 A3006 RMK A01 T03510188  RH  038%=      5-min Rain = 0
KMC4 141949Z 01003KT 35/19 A3006 RMK A01 T03510187  RH  038%=      5-min Rain = 0
KMC4 141950Z 02005KT 35/19 A3006 RMK A01 T03500186  RH  038%=      5-min Rain = 0
KMC4 141951Z 01008KT 35/19 A3005 RMK A01 T03510185  RH  038%=      5-min Rain = 0
KMC4 141952Z 03010KT 35/18 A3005 RMK A01 T03530184  RH  037%=      5-min Rain = 0
KMC4 141953Z 03012KT 36/19 A3005 RMK A01 T03560185  RH  037%=      5-min Rain = 0
KMC4 141954Z 04009KT 35/19 A3005 RMK A01 T03530186  RH  038%=      5-min Rain = 0
KMC4 141955Z 05010KT 35/19 A3005 RMK A01 T03540187  RH  037%=      5-min Rain = 0
KMC4 141956Z 06007KT 35/19 A3005 RMK A01 T03520186  RH  038%=      5-min Rain = 0
KMC4 141957Z 03007KT 35/19 A3005 RMK A01 T03480186  RH  039%=      5-min Rain = 0
KMC4 141958Z 03007KT 35/19 A3005 RMK A01 T03480187  RH  039%=      5-min Rain = 0
KMC4 141959Z 01009KT 35/19 A3005 RMK A01 T03520185  RH  037%=      5-min Rain = 0
KMC4 142000Z 01011KT 35/18 A3005 RMK A01 T03540182  RH  036%=      5-min Rain = 0
KMC4 142001Z 01007KT 35/19 A3005 RMK A01 T03510185  RH  038%=      5-min Rain = 0
KMC4 142002Z 02009KT 35/19 A3005 RMK A01 T03490185  RH  038%=      5-min Rain = 0
KMC4 142003Z 01005KT 35/19 A3005 RMK A01 T03470185  RH  038%=      5-min Rain = 0
KMC4 142004Z 05004KT 35/19 A3005 RMK A01 T03460185  RH  039%=      5-min Rain = 0
KMC4 142005Z 06007KT 35/19 A3005 RMK A01 T03470186  RH  039%=      5-min Rain = 0
KMC4 142006Z 06007KT 35/19 A3005 RMK A01 T03480187  RH  039%=      5-min Rain = 0
KMC4 142007Z 04012KT 35/19 A3005 RMK A01 T03480188  RH  039%=      5-min Rain = 0
KMC4 142008Z 04011KT 35/19 A3005 RMK A01 T03500190  RH  039%=      5-min Rain = 0
KMC4 142009Z 04012KT 35/19 A3005 RMK A01 T03500190  RH  039%=      5-min Rain = 0
KMC4 142010Z 06011KT 35/19 A3005 RMK A01 T03470189  RH  039%=      5-min Rain = 0
KMC4 142011Z 05008KT 35/19 A3005 RMK A01 T03450188  RH  040%=      5-min Rain = 0
KMC4 142012Z 04004KT 34/19 A3005 RMK A01 T03430187  RH  040%=      5-min Rain = 0
KMC4 142013Z 06006KT 34/19 A3005 RMK A01 T03420187  RH  040%=      5-min Rain = 0
KMC4 142014Z 06009KT 34/19 A3005 RMK A01 T03430187  RH  040%=      5-min Rain = 0
KMC4 142015Z 06011KT 35/19 A3005 RMK A01 T03450187  RH  039%=      5-min Rain = 0
KMC4 142016Z 06010KT 35/19 A3005 RMK A01 T03450187  RH  039%=      5-min Rain = 0
KMC4 142017Z 05013KT 35/19 A3005 RMK A01 T03460187  RH  039%=      5-min Rain = 0
KMC4 142018Z 04011KT 35/19 A3005 RMK A01 T03460187  RH  039%=      5-min Rain = 0
KMC4 142019Z 04011KT 35/19 A3005 RMK A01 T03470187  RH  039%=      5-min Rain = 0
KMC4 142020Z 03012KT 35/19 A3005 RMK A01 T03480187  RH  039%=      5-min Rain = 0
KMC4 142021Z 03010KT 35/19 A3005 RMK A01 T03470186  RH  039%=      5-min Rain = 0
KMC4 142022Z 03010KT 35/19 A3006 RMK A01 T03460187  RH  039%=      5-min Rain = 0
KMC4 142023Z 01006KT 34/19 A3006 RMK A01 T03440187  RH  040%=      5-min Rain = 0
KMC4 142024Z 03003KT 34/19 A3006 RMK A01 T03420187  RH  040%=      5-min Rain = 0
KMC4 142025Z 05004KT 34/19 A3006 RMK A01 T03430187  RH  040%=      5-min Rain = 0
KMC4 142026Z 06006KT 34/19 A3006 RMK A01 T03440187  RH  040%=      5-min Rain = 0
KMC4 142027Z 05009KT 35/19 A3006 RMK A01 T03450187  RH  039%=      5-min Rain = 0
KMC4 142028Z 04009KT 35/19 A3006 RMK A01 T03460187  RH  039%=      5-min Rain = 0
KMC4 142029Z 03009KT 35/19 A3006 RMK A01 T03450186  RH  039%=      5-min Rain = 0
KMC4 142030Z 01008KT 35/19 A3006 RMK A01 T03460186  RH  039%=      5-min Rain = 0
KMC4 142031Z 02007KT 35/19 A3006 RMK A01 T03460186  RH  039%=      5-min Rain = 0
KMC4 142032Z 03010KT 35/19 A3005 RMK A01 T03460186  RH  039%=      5-min Rain = 0
KMC4 142033Z 01008KT 35/19 A3005 RMK A01 T03460186  RH  039%=      5-min Rain = 0
KMC4 142034Z 02007KT 35/19 A3005 RMK A01 T03460186  RH  039%=      5-min Rain = 0
KMC4 142035Z 06006KT 35/19 A3005 RMK A01 T03460187  RH  039%=      5-min Rain = 0
KMC4 142036Z 08008KT 35/19 A3005 RMK A01 T03480185  RH  038%=      5-min Rain = 0
KMC4 142037Z 05010KT 35/19 A3006 RMK A01 T03470186  RH  039%=      5-min Rain = 0
KMC4 142038Z 05009KT 35/19 A3006 RMK A01 T03470185  RH  038%=      5-min Rain = 0
KMC4 142039Z 05009KT 35/19 A3006 RMK A01 T03470185  RH  038%=      5-min Rain = 0
KMC4 142040Z 04010KT 35/19 A3006 RMK A01 T03480185  RH  038%=      5-min Rain = 0
KMC4 142041Z 03010KT 35/19 A3006 RMK A01 T03480185  RH  038%=      5-min Rain = 0
KMC4 142042Z 03008KT 35/18 A3006 RMK A01 T03480184  RH  038%=      5-min Rain = 0
KMC4 142043Z 06011KT 35/18 A3006 RMK A01 T03470184  RH  038%=      5-min Rain = 0
KMC4 142044Z 05009KT 35/18 A3006 RMK A01 T03460184  RH  038%=      5-min Rain = 0
KMC4 142045Z 06008KT 35/18 A3006 RMK A01 T03450183  RH  039%=      5-min Rain = 0
KMC4 142046Z 06009KT 35/18 A3006 RMK A01 T03450184  RH  039%=      5-min Rain = 0
KMC4 142047Z 05009KT 35/18 A3006 RMK A01 T03460184  RH  039%=      5-min Rain = 0
KMC4 142048Z 05008KT 35/18 A3006 RMK A01 T03460184  RH  038%=      5-min Rain = 0
KMC4 142049Z 07005KT 35/18 A3006 RMK A01 T03450184  RH  039%=      5-min Rain = 0
KMC4 142050Z 04006KT 34/18 A3006 RMK A01 T03440184  RH  039%=      5-min Rain = 0
KMC4 142051Z 02008KT 35/18 A3006 RMK A01 T03450184  RH  039%=      5-min Rain = 0
KMC4 142052Z 03006KT 35/18 A3006 RMK A01 T03450183  RH  038%=      5-min Rain = 0
KMC4 142053Z 04010KT 34/18 A3006 RMK A01 T03440183  RH  039%=      5-min Rain = 0
KMC4 142054Z 05009KT 35/18 A3006 RMK A01 T03450184  RH  039%=      5-min Rain = 0
KMC4 142055Z 06007KT 34/19 A3006 RMK A01 T03440185  RH  039%=      5-min Rain = 0
KMC4 142056Z 05008KT 35/19 A3006 RMK A01 T03450185  RH  039%=      5-min Rain = 0
KMC4 142057Z 05007KT 34/19 A3006 RMK A01 T03440185  RH  039%=      5-min Rain = 0
KMC4 142058Z 03007KT 34/19 A3006 RMK A01 T03430185  RH  039%=      5-min Rain = 0
KMC4 142059Z 03008KT 34/19 A3006 RMK A01 T03430185  RH  039%=      5-min Rain = 0
KMC4 142100Z 06005KT 34/19 A3006 RMK A01 T03440185  RH  039%=      5-min Rain = 0
KMC4 142101Z 06004KT 34/19 A3006 RMK A01 T03430185  RH  039%=      5-min Rain = 0
KMC4 142102Z 08004KT 34/19 A3006 RMK A01 T03430186  RH  039%=      5-min Rain = 0
KMC4 142103Z 09006KT 34/19 A3006 RMK A01 T03440186  RH  039%=      5-min Rain = 0
KMC4 142104Z 10007KT 35/19 A3005 RMK A01 T03450187  RH  040%=      5-min Rain = 0
KMC4 142105Z 10005KT 34/19 A3005 RMK A01 T03440189  RH  040%=      5-min Rain = 0
KMC4 142106Z 07005KT 35/19 A3006 RMK A01 T03450189  RH  040%=      5-min Rain = 0
KMC4 142107Z 10004KT 35/19 A3006 RMK A01 T03450189  RH  040%=      5-min Rain = 0
KMC4 142108Z 09006KT 35/19 A3006 RMK A01 T03450190  RH  040%=      5-min Rain = 0
KMC4 142109Z 09004KT 35/19 A3006 RMK A01 T03460189  RH  040%=      5-min Rain = 0
KMC4 142110Z 10004KT 35/19 A3006 RMK A01 T03470190  RH  040%=      5-min Rain = 0
KMC4 142111Z 08006KT 35/19 A3006 RMK A01 T03470190  RH  040%=      5-min Rain = 0
KMC4 142112Z 06006KT 35/19 A3006 RMK A01 T03460191  RH  040%=      5-min Rain = 0
KMC4 142113Z 10008KT 35/19 A3006 RMK A01 T03460191  RH  040%=      5-min Rain = 0
KMC4 142114Z 10009KT 35/19 A3006 RMK A01 T03450190  RH  040%=      5-min Rain = 0
KMC4 142115Z 10008KT 35/19 A3006 RMK A01 T03450190  RH  040%=      5-min Rain = 0
KMC4 142116Z 10008KT 35/19 A3006 RMK A01 T03450190  RH  040%=      5-min Rain = 0
KMC4 142117Z 10008KT 35/19 A3006 RMK A01 T03450190  RH  040%=      5-min Rain = 0
KMC4 142118Z 11006KT 34/19 A3007 RMK A01 T03440190  RH  040%=      5-min Rain = 0
KMC4 142119Z 19011KT 34/19 A3007 RMK A01 T03430187  RH  040%=      5-min Rain = 0
KMC4 142120Z 20011KT 33/18 A3007 RMK A01 T03290181  RH  041%=      5-min Rain = 0
KMC4 142121Z 19014KT 32/18 A3007 RMK A01 T03170181  RH  044%=      5-min Rain = 0
KMC4 142122Z 17015KT 31/18 A3007 RMK A01 T03100182  RH  046%=      5-min Rain = 0
KMC4 142123Z 17018KT 31/18 A3007 RMK A01 T03060184  RH  048%=      5-min Rain = 0
KMC4 142124Z 17018G23KT 30/19 A3008 RMK A01 T03010185  RH  050%=      5-min Rain = 0
KMC4 142125Z 17017KT 30/19 A3007 RMK A01 T02990185  RH  050%=      5-min Rain = 0
KMC4 142126Z 18017KT 30/18 A3007 RMK A01 T02980184  RH  050%=      5-min Rain = 0
KMC4 142127Z 17016G23KT 30/19 A3008 RMK A01 T02970185  RH  051%=      5-min Rain = 0
KMC4 142128Z 18020KT 30/18 A3007 RMK A01 T02970184  RH  051%=      5-min Rain = 0
KMC4 142129Z 17018KT 30/18 A3007 RMK A01 T02970184  RH  051%=      5-min Rain = 0
KMC4 142130Z 17017KT 30/19 A3008 RMK A01 T02970185  RH  051%=      5-min Rain = 0
KMC4 142131Z 17016G22KT 30/19 A3008 RMK A01 T02960186  RH  052%=      5-min Rain = 0
KMC4 142132Z 16022KT 29/19 A3008 RMK A01 T02940185  RH  052%=      5-min Rain = 0
KMC4 142133Z 16019KT 29/18 A3008 RMK A01 T02910183  RH  052%=      5-min Rain = 0
KMC4 142134Z 17017KT 29/18 A3008 RMK A01 T02880183  RH  053%=      5-min Rain = 0
KMC4 142135Z 18017KT 29/18 A3008 RMK A01 T02860182  RH  053%=      5-min Rain = 0
KMC4 142136Z 18014KT 28/18 A3008 RMK A01 T02840182  RH  054%=      5-min Rain = 0
KMC4 142137Z 19012KT 28/18 A3008 RMK A01 T02840182  RH  054%=      5-min Rain = 0
KMC4 142138Z 19015KT 28/18 A3008 RMK A01 T02840181  RH  053%=      5-min Rain = 0
KMC4 142139Z 18017KT 29/18 A3008 RMK A01 T02850179  RH  053%=      5-min Rain = 0
KMC4 142140Z 18017G22KT 28/18 A3008 RMK A01 T02830179  RH  053%=      5-min Rain = 0
KMC4 142141Z 18015G21KT 28/18 A3008 RMK A01 T02800179  RH  054%=      5-min Rain = 0
KMC4 142142Z 17017KT 28/18 A3008 RMK A01 T02780180  RH  055%=      5-min Rain = 0
KMC4 142143Z 17016KT 28/18 A3008 RMK A01 T02760180  RH  056%=      5-min Rain = 0
KMC4 142144Z 17015KT 27/18 A3008 RMK A01 T02740181  RH  057%=      5-min Rain = 0
KMC4 142145Z 16012KT 27/18 A3008 RMK A01 T02730182  RH  057%=      5-min Rain = 0
KMC4 142146Z 16012KT 27/18 A3008 RMK A01 T02730182  RH  057%=      5-min Rain = 0
KMC4 142147Z 17012KT 27/18 A3008 RMK A01 T02740181  RH  057%=      5-min Rain = 0
KMC4 142148Z 17013KT 28/18 A3008 RMK A01 T02750181  RH  057%=      5-min Rain = 0
KMC4 142149Z 16014KT 28/18 A3008 RMK A01 T02760181  RH  056%=      5-min Rain = 0
KMC4 142150Z 17012KT 28/18 A3008 RMK A01 T02770181  RH  056%=      5-min Rain = 0
KMC4 142151Z 17014KT 28/18 A3008 RMK A01 T02780181  RH  056%=      5-min Rain = 0
KMC4 142152Z 16012KT 28/18 A3008 RMK A01 T02760181  RH  056%=      5-min Rain = 0
KMC4 142153Z 17011KT 28/18 A3008 RMK A01 T02760183  RH  057%=      5-min Rain = 0
KMC4 142154Z 17013KT 28/18 A3008 RMK A01 T02750183  RH  057%=      5-min Rain = 0
KMC4 142155Z 17013KT 27/18 A3007 RMK A01 T02740184  RH  058%=      5-min Rain = 0
KMC4 142156Z 17013KT 27/18 A3007 RMK A01 T02730183  RH  058%=      5-min Rain = 0
KMC4 142157Z 17014KT 27/18 A3007 RMK A01 T02730184  RH  058%=      5-min Rain = 0
KMC4 142158Z 17013KT 27/18 A3007 RMK A01 T02720184  RH  059%=      5-min Rain = 0
KMC4 142159Z 17013KT 27/19 A3007 RMK A01 T02720185  RH  059%=      5-min Rain = 0
KMC4 142200Z 16014KT 27/19 A3007 RMK A01 T02710186  RH  059%=      5-min Rain = 0
KMC4 142201Z 15014KT 27/19 A3007 RMK A01 T02710186  RH  060%=      5-min Rain = 0
KMC4 142202Z 15013KT 27/19 A3007 RMK A01 T02710186  RH  060%=      5-min Rain = 0
KMC4 142203Z 15013KT 27/19 A3007 RMK A01 T02720187  RH  060%=      5-min Rain = 0
KMC4 142204Z 15012KT 27/19 A3007 RMK A01 T02730187  RH  060%=      5-min Rain = 0
KMC4 142205Z 15012KT 27/19 A3007 RMK A01 T02740187  RH  059%=      5-min Rain = 0
KMC4 142206Z 16012KT 27/19 A3007 RMK A01 T02740188  RH  059%=      5-min Rain = 0
KMC4 142207Z 16011KT 27/19 A3007 RMK A01 T02740188  RH  059%=      5-min Rain = 0
KMC4 142208Z 17011KT 27/19 A3007 RMK A01 T02740188  RH  059%=      5-min Rain = 0
KMC4 142209Z 16012KT 27/19 A3007 RMK A01 T02740189  RH  060%=      5-min Rain = 0
KMC4 142210Z 16010KT 27/19 A3007 RMK A01 T02740189  RH  060%=      5-min Rain = 0
KMC4 142211Z 15012KT 28/19 A3007 RMK A01 T02760190  RH  059%=      5-min Rain = 0
KMC4 142212Z 15013KT 28/19 A3007 RMK A01 T02770189  RH  059%=      5-min Rain = 0
KMC4 142213Z 15012KT 28/19 A3006 RMK A01 T02760189  RH  059%=      5-min Rain = 0
KMC4 142214Z 15011KT 28/19 A3006 RMK A01 T02750189  RH  059%=      5-min Rain = 0
KMC4 142215Z 15013KT 28/19 A3006 RMK A01 T02750188  RH  059%=      5-min Rain = 0
KMC4 142216Z 16010KT 28/19 A3006 RMK A01 T02750188  RH  059%=      5-min Rain = 0
KMC4 142217Z 16010KT 28/19 A3006 RMK A01 T02770189  RH  059%=      5-min Rain = 0
KMC4 142218Z 16011KT 28/19 A3006 RMK A01 T02780189  RH  058%=      5-min Rain = 0
KMC4 142219Z 16008KT 28/19 A3006 RMK A01 T02790189  RH  058%=      5-min Rain = 0
KMC4 142220Z 16009KT 28/19 A3006 RMK A01 T02790189  RH  058%=      5-min Rain = 0
KMC4 142221Z 17010KT 28/19 A3006 RMK A01 T02790190  RH  058%=      5-min Rain = 0
KMC4 142222Z 17009KT 28/19 A3006 RMK A01 T02770191  RH  059%=      5-min Rain = 0
KMC4 142223Z 17009KT 28/19 A3006 RMK A01 T02760191  RH  060%=      5-min Rain = 0
KMC4 142224Z 17008KT 28/19 A3006 RMK A01 T02770191  RH  060%=      5-min Rain = 0
KMC4 142225Z 16010KT 28/19 A3007 RMK A01 T02770192  RH  060%=      5-min Rain = 0
KMC4 142226Z 16011KT 28/19 A3007 RMK A01 T02780192  RH  060%=      5-min Rain = 0
KMC4 142227Z 16009KT 28/19 A3007 RMK A01 T02780193  RH  060%=      5-min Rain = 0
KMC4 142228Z 17008KT 28/19 A3007 RMK A01 T02780194  RH  060%=      5-min Rain = 0
KMC4 142229Z 18009KT 28/19 A3007 RMK A01 T02780194  RH  060%=      5-min Rain = 0
KMC4 142230Z 18008KT 28/20 A3007 RMK A01 T02790195  RH  060%=      5-min Rain = 0
KMC4 142231Z 16011KT 28/19 A3007 RMK A01 T02800194  RH  060%=      5-min Rain = 0
KMC4 142232Z 16011KT 28/19 A3007 RMK A01 T02810193  RH  059%=      5-min Rain = 0
KMC4 142233Z 16010KT 28/19 A3007 RMK A01 T02820193  RH  058%=      5-min Rain = 0
KMC4 142234Z 15012KT 28/19 A3007 RMK A01 T02820192  RH  058%=      5-min Rain = 0
KMC4 142235Z 17011KT 28/19 A3007 RMK A01 T02810191  RH  058%=      5-min Rain = 0
KMC4 142236Z 17010KT 28/19 A3007 RMK A01 T02790190  RH  058%=      5-min Rain = 0
KMC4 142237Z 17009KT 28/19 A3007 RMK A01 T02780189  RH  058%=      5-min Rain = 0
KMC4 142238Z 17008KT 28/19 A3007 RMK A01 T02770188  RH  058%=      5-min Rain = 0
KMC4 142239Z 16009KT 28/19 A3007 RMK A01 T02780188  RH  058%=      5-min Rain = 0
KMC4 142240Z 15009KT 28/19 A3007 RMK A01 T02780187  RH  058%=      5-min Rain = 0
KMC4 142241Z 15009KT 28/19 A3007 RMK A01 T02770187  RH  058%=      5-min Rain = 0
KMC4 142242Z 16009KT 28/19 A3007 RMK A01 T02760187  RH  058%=      5-min Rain = 0
KMC4 142243Z 15010KT 28/18 A3007 RMK A01 T02770184  RH  057%=      5-min Rain = 0
KMC4 142244Z 15008KT 28/18 A3007 RMK A01 T02770183  RH  056%=      5-min Rain = 0
KMC4 142245Z 16008KT 28/18 A3007 RMK A01 T02770180  RH  056%=      5-min Rain = 0
KMC4 142246Z 17009KT 28/18 A3007 RMK A01 T02780178  RH  055%=      5-min Rain = 0
KMC4 142247Z 16009KT 28/18 A3007 RMK A01 T02780179  RH  055%=      5-min Rain = 0
KMC4 142248Z 16009KT 28/18 A3007 RMK A01 T02760180  RH  056%=      5-min Rain = 0
KMC4 142249Z 15008KT 28/18 A3007 RMK A01 T02750181  RH  056%=      5-min Rain = 0
KMC4 142250Z 14009KT 27/18 A3007 RMK A01 T02740182  RH  057%=      5-min Rain = 0
KMC4 142251Z 15008KT 27/18 A3007 RMK A01 T02740182  RH  057%=      5-min Rain = 0
KMC4 142252Z 15008KT 27/18 A3007 RMK A01 T02740182  RH  057%=      5-min Rain = 0
KMC4 142253Z 16009KT 27/18 A3007 RMK A01 T02740182  RH  057%=      5-min Rain = 0
KMC4 142254Z 15010KT 27/18 A3007 RMK A01 T02740183  RH  057%=      5-min Rain = 0
KMC4 142255Z 15010KT 27/18 A3007 RMK A01 T02740182  RH  057%=      5-min Rain = 0
KMC4 142256Z 15011KT 27/18 A3007 RMK A01 T02730182  RH  058%=      5-min Rain = 0
KMC4 142257Z 13010KT 27/18 A3007 RMK A01 T02720182  RH  058%=      5-min Rain = 0
KMC4 142258Z 14010KT 27/18 A3007 RMK A01 T02720182  RH  058%=      5-min Rain = 0
KMC4 142259Z 16009KT 27/18 A3007 RMK A01 T02730182  RH  058%=      5-min Rain = 0
KMC4 142300Z 16010KT 27/18 A3007 RMK A01 T02740182  RH  057%=      5-min Rain = 0
KMC4 142301Z 15010KT 27/18 A3007 RMK A01 T02720182  RH  058%=      5-min Rain = 0
KMC4 142302Z 15010KT 27/18 A3007 RMK A01 T02720181  RH  058%=      5-min Rain = 0
KMC4 142303Z 15010KT 27/18 A3006 RMK A01 T02710181  RH  058%=      5-min Rain = 0
KMC4 142304Z 14009KT 27/18 A3006 RMK A01 T02710181  RH  058%=      5-min Rain = 0
KMC4 142305Z 15010KT 27/18 A3006 RMK A01 T02710181  RH  058%=      5-min Rain = 0
KMC4 142306Z 15009KT 27/18 A3006 RMK A01 T02710182  RH  058%=      5-min Rain = 0
KMC4 142307Z 14011KT 27/18 A3006 RMK A01 T02710181  RH  058%=      5-min Rain = 0
KMC4 142308Z 14010KT 27/18 A3006 RMK A01 T02700180  RH  058%=      5-min Rain = 0
KMC4 142309Z 13008KT 27/18 A3006 RMK A01 T02700180  RH  058%=      5-min Rain = 0
KMC4 142310Z 15008KT 27/18 A3006 RMK A01 T02690180  RH  058%=      5-min Rain = 0
KMC4 142311Z 16009KT 27/18 A3006 RMK A01 T02710181  RH  058%=      5-min Rain = 0
KMC4 142312Z 16010KT 27/18 A3005 RMK A01 T02720181  RH  057%=      5-min Rain = 0
KMC4 142313Z 16008KT 27/18 A3005 RMK A01 T02710180  RH  057%=      5-min Rain = 0
KMC4 142314Z 15008KT 27/18 A3005 RMK A01 T02710180  RH  057%=      5-min Rain = 0
KMC4 142315Z 15011KT 27/18 A3005 RMK A01 T02710179  RH  057%=      5-min Rain = 0
KMC4 142316Z 16009KT 27/18 A3005 RMK A01 T02720179  RH  057%=      5-min Rain = 0
KMC4 142317Z 15009KT 27/18 A3005 RMK A01 T02720179  RH  057%=      5-min Rain = 0
KMC4 142318Z 14009KT 27/18 A3005 RMK A01 T02720179  RH  057%=      5-min Rain = 0
KMC4 142319Z 15007KT 27/18 A3005 RMK A01 T02720179  RH  057%=      5-min Rain = 0
KMC4 142320Z 15008KT 27/18 A3005 RMK A01 T02730179  RH  057%=      5-min Rain = 0
KMC4 142321Z 15009KT 27/18 A3005 RMK A01 T02730178  RH  056%=      5-min Rain = 0
KMC4 142322Z 15008KT 27/18 A3005 RMK A01 T02740178  RH  056%=      5-min Rain = 0
KMC4 142323Z 15008KT 27/18 A3005 RMK A01 T02730178  RH  056%=      5-min Rain = 0
KMC4 142324Z 15008KT 27/18 A3005 RMK A01 T02730178  RH  056%=      5-min Rain = 0
KMC4 142325Z 15008KT 27/18 A3005 RMK A01 T02740178  RH  056%=      5-min Rain = 0
KMC4 142326Z 14007KT 27/18 A3005 RMK A01 T02740178  RH  056%=      5-min Rain = 0
KMC4 142327Z 14008KT 27/18 A3005 RMK A01 T02730178  RH  056%=      5-min Rain = 0
KMC4 142328Z 15007KT 27/18 A3005 RMK A01 T02740178  RH  056%=      5-min Rain = 0
KMC4 142329Z 16006KT 27/18 A3005 RMK A01 T02740178  RH  056%=      5-min Rain = 0
KMC4 142330Z 17005KT 27/18 A3005 RMK A01 T02740179  RH  056%=      5-min Rain = 0
KMC4 142331Z 16006KT 27/18 A3005 RMK A01 T02740179  RH  056%=      5-min Rain = 0
KMC4 142332Z 17006KT 27/18 A3005 RMK A01 T02730179  RH  056%=      5-min Rain = 0
KMC4 142333Z 17008KT 27/18 A3005 RMK A01 T02740179  RH  056%=      5-min Rain = 0
KMC4 142334Z 17007KT 27/18 A3005 RMK A01 T02740179  RH  056%=      5-min Rain = 0
KMC4 142335Z 17008KT 27/18 A3005 RMK A01 T02740180  RH  057%=      5-min Rain = 0
KMC4 142336Z 17009KT 27/18 A3005 RMK A01 T02730180  RH  057%=      5-min Rain = 0
KMC4 142337Z 17008KT 27/18 A3005 RMK A01 T02730180  RH  057%=      5-min Rain = 0
KMC4 142338Z 16007KT 27/18 A3005 RMK A01 T02730180  RH  057%=      5-min Rain = 0
KMC4 142339Z 16006KT 27/18 A3005 RMK A01 T02730180  RH  057%=      5-min Rain = 0
KMC4 142340Z 16007KT 27/18 A3004 RMK A01 T02730180  RH  057%=      5-min Rain = 0
KMC4 142341Z 16006KT 28/18 A3004 RMK A01 T02750180  RH  056%=      5-min Rain = 0
KMC4 142342Z 17007KT 28/18 A3004 RMK A01 T02760181  RH  056%=      5-min Rain = 0
KMC4 142343Z 16007KT 28/18 A3004 RMK A01 T02760181  RH  056%=      5-min Rain = 0
KMC4 142344Z 16006KT 28/18 A3004 RMK A01 T02750181  RH  056%=      5-min Rain = 0
KMC4 142345Z 16006KT 28/18 A3004 RMK A01 T02750181  RH  057%=      5-min Rain = 0
KMC4 142346Z 16008KT 28/18 A3004 RMK A01 T02750181  RH  056%=      5-min Rain = 0
KMC4 142347Z 16007KT 28/18 A3004 RMK A01 T02760180  RH  056%=      5-min Rain = 0
KMC4 142348Z 16006KT 28/18 A3004 RMK A01 T02750180  RH  056%=      5-min Rain = 0
KMC4 142349Z 18005KT 28/18 A3004 RMK A01 T02750179  RH  056%=      5-min Rain = 0
KMC4 142350Z 18008KT 28/18 A3004 RMK A01 T02750179  RH  056%=      5-min Rain = 0
KMC4 142351Z 18006KT 28/18 A3004 RMK A01 T02750179  RH  056%=      5-min Rain = 0
KMC4 142352Z 17007KT 28/18 A3004 RMK A01 T02750179  RH  056%=      5-min Rain = 0
KMC4 142353Z 16007KT 28/18 A3004 RMK A01 T02750180  RH  056%=      5-min Rain = 0
KMC4 142354Z 16008KT 28/18 A3004 RMK A01 T02760180  RH  056%=      5-min Rain = 0
KMC4 142355Z 17006KT 28/18 A3004 RMK A01 T02760180  RH  056%=      5-min Rain = 0
KMC4 142356Z 17006KT 28/18 A3004 RMK A01 T02760180  RH  056%=      5-min Rain = 0
KMC4 142357Z 17005KT 28/18 A3004 RMK A01 T02770180  RH  056%=      5-min Rain = 0
KMC4 142358Z 17004KT 28/18 A3005 RMK A01 T02770181  RH  056%=      5-min Rain = 0
KMC4 142359Z 16005KT 28/18 A3005 RMK A01 T02770181  RH  056%=      5-min Rain = 0
KMC4 150000Z 16005KT 28/18 A3005 RMK A01 T02780181  RH  056%=      5-min Rain = 0
KMC4 150001Z 17005KT 28/18 A3004 RMK A01 T02790182  RH  056%=      5-min Rain = 0
KMC4 150002Z 17005KT 28/18 A3004 RMK A01 T02790182  RH  055%=      5-min Rain = 0
KMC4 150003Z 19005KT 28/18 A3004 RMK A01 T02800182  RH  055%=      5-min Rain = 0
KMC4 150004Z 18006KT 28/18 A3004 RMK A01 T02810183  RH  055%=      5-min Rain = 0
KMC4 150005Z 18006KT 28/18 A3004 RMK A01 T02820183  RH  055%=      5-min Rain = 0
KMC4 150006Z 17004KT 28/18 A3004 RMK A01 T02830183  RH  055%=      5-min Rain = 0
KMC4 150007Z 19006KT 28/18 A3004 RMK A01 T02820184  RH  055%=      5-min Rain = 0
KMC4 150008Z 17006KT 28/18 A3004 RMK A01 T02820184  RH  055%=      5-min Rain = 0
KMC4 150009Z 17006KT 28/18 A3003 RMK A01 T02820184  RH  055%=      5-min Rain = 0
KMC4 150010Z 16007KT 28/18 A3003 RMK A01 T02820184  RH  055%=      5-min Rain = 0
KMC4 150011Z 16007KT 28/18 A3003 RMK A01 T02820184  RH  055%=      5-min Rain = 0
KMC4 150012Z 16008KT 28/18 A3003 RMK A01 T02830184  RH  055%=      5-min Rain = 0
KMC4 150013Z 17008KT 28/18 A3003 RMK A01 T02840184  RH  055%=      5-min Rain = 0
KMC4 150014Z 17008KT 28/18 A3004 RMK A01 T02830184  RH  055%=      5-min Rain = 0
KMC4 150015Z 18006KT 28/18 A3004 RMK A01 T02830184  RH  055%=      5-min Rain = 0
KMC4 150016Z 18005KT 28/19 A3004 RMK A01 T02840185  RH  055%=      5-min Rain = 0
KMC4 150017Z 17007KT 29/19 A3004 RMK A01 T02850185  RH  055%=      5-min Rain = 0
KMC4 150018Z 18006KT 29/18 A3004 RMK A01 T02850184  RH  054%=      5-min Rain = 0
KMC4 150019Z 20006KT 29/18 A3004 RMK A01 T02850184  RH  054%=      5-min Rain = 0
KMC4 150020Z 18004KT 28/18 A3004 RMK A01 T02840184  RH  055%=      5-min Rain = 0
KMC4 150021Z 18003KT 28/19 A3004 RMK A01 T02840185  RH  055%=      5-min Rain = 0
KMC4 150022Z 18003KT 28/19 A3004 RMK A01 T02840185  RH  055%=      5-min Rain = 0
KMC4 150023Z 17005KT 29/19 A3004 RMK A01 T02850185  RH  055%=      5-min Rain = 0
KMC4 150024Z 17005KT 29/18 A3004 RMK A01 T02860184  RH  054%=      5-min Rain = 0
KMC4 150025Z 18005KT 29/19 A3004 RMK A01 T02860185  RH  054%=      5-min Rain = 0
KMC4 150026Z 19006KT 29/19 A3005 RMK A01 T02850185  RH  055%=      5-min Rain = 0
KMC4 150027Z 17005KT 29/19 A3005 RMK A01 T02850185  RH  055%=      5-min Rain = 0
KMC4 150028Z 16005KT 29/19 A3005 RMK A01 T02850185  RH  055%=      5-min Rain = 0
KMC4 150029Z 15006KT 28/19 A3005 RMK A01 T02840185  RH  055%=      5-min Rain = 0
KMC4 150030Z 14006KT 28/19 A3005 RMK A01 T02830185  RH  055%=      5-min Rain = 0
KMC4 150031Z 15005KT 28/19 A3005 RMK A01 T02840185  RH  055%=      5-min Rain = 0
KMC4 150032Z 15005KT 28/19 A3005 RMK A01 T02840185  RH  055%=      5-min Rain = 0
KMC4 150033Z 16005KT 29/19 A3004 RMK A01 T02850186  RH  055%=      5-min Rain = 0
KMC4 150034Z 15007KT 29/19 A3005 RMK A01 T02850186  RH  055%=      5-min Rain = 0
KMC4 150035Z 14007KT 28/19 A3005 RMK A01 T02840186  RH  055%=      5-min Rain = 0
KMC4 150036Z 16006KT 28/19 A3005 RMK A01 T02830185  RH  055%=      5-min Rain = 0
KMC4 150037Z 15005KT 28/19 A3005 RMK A01 T02830186  RH  056%=      5-min Rain = 0
KMC4 150038Z 16006KT 28/19 A3005 RMK A01 T02830186  RH  056%=      5-min Rain = 0
KMC4 150039Z 15005KT 28/19 A3005 RMK A01 T02830186  RH  056%=      5-min Rain = 0
KMC4 150040Z 15005KT 28/19 A3006 RMK A01 T02820186  RH  056%=      5-min Rain = 0
KMC4 150041Z 16005KT 28/19 A3006 RMK A01 T02820186  RH  056%=      5-min Rain = 0
KMC4 150042Z 15006KT 28/19 A3006 RMK A01 T02820185  RH  056%=      5-min Rain = 0
KMC4 150043Z 14006KT 28/19 A3006 RMK A01 T02820186  RH  056%=      5-min Rain = 0
KMC4 150044Z 14005KT 28/19 A3006 RMK A01 T02820186  RH  056%=      5-min Rain = 0
KMC4 150045Z 15005KT 28/19 A3006 RMK A01 T02820186  RH  056%=      5-min Rain = 0
KMC4 150046Z 15005KT 28/19 A3006 RMK A01 T02820185  RH  056%=      5-min Rain = 0
KMC4 150047Z 16005KT 28/19 A3006 RMK A01 T02820185  RH  056%=      5-min Rain = 0
KMC4 150048Z 16004KT 28/19 A3006 RMK A01 T02820185  RH  056%=      5-min Rain = 0
KMC4 150049Z 17004KT 28/19 A3006 RMK A01 T02820186  RH  056%=      5-min Rain = 0
KMC4 150050Z 19004KT 28/19 A3006 RMK A01 T02810186  RH  056%=      5-min Rain = 0
KMC4 150051Z 18004KT 28/19 A3006 RMK A01 T02810186  RH  056%=      5-min Rain = 0
KMC4 150052Z 19004KT 28/19 A3006 RMK A01 T02810186  RH  056%=      5-min Rain = 0
KMC4 150053Z 19004KT 28/19 A3006 RMK A01 T02810186  RH  056%=      5-min Rain = 0
KMC4 150054Z 19004KT 28/19 A3006 RMK A01 T02810185  RH  056%=      5-min Rain = 0
KMC4 150055Z 18004KT 28/18 A3006 RMK A01 T02810182  RH  055%=      5-min Rain = 0
KMC4 150056Z 18003KT 28/18 A3006 RMK A01 T02810183  RH  055%=      5-min Rain = 0
KMC4 150057Z 18003KT 28/18 A3006 RMK A01 T02810183  RH  055%=      5-min Rain = 0
KMC4 150058Z 19003KT 28/18 A3006 RMK A01 T02810183  RH  055%=      5-min Rain = 0
KMC4 150059Z 18002KT 28/18 A3006 RMK A01 T02810183  RH  055%=      5-min Rain = 0
KMC4 150100Z 16002KT 28/18 A3006 RMK A01 T02820182  RH  055%=      5-min Rain = 0
KMC4 150101Z 16003KT 28/18 A3006 RMK A01 T02820182  RH  055%=      5-min Rain = 0
KMC4 150102Z 15002KT 28/18 A3006 RMK A01 T02820182  RH  055%=      5-min Rain = 0
KMC4 150103Z 16003KT 28/18 A3006 RMK A01 T02820182  RH  055%=      5-min Rain = 0
KMC4 150104Z 16003KT 28/18 A3006 RMK A01 T02820182  RH  055%=      5-min Rain = 0
KMC4 150105Z 15003KT 28/18 A3006 RMK A01 T02820182  RH  054%=      5-min Rain = 0
KMC4 150106Z 16003KT 28/18 A3006 RMK A01 T02820180  RH  054%=      5-min Rain = 0
KMC4 150107Z 19003KT 28/18 A3006 RMK A01 T02820181  RH  054%=      5-min Rain = 0
KMC4 150108Z 23003KT 28/18 A3006 RMK A01 T02820181  RH  054%=      5-min Rain = 0
KMC4 150109Z 21005KT 28/18 A3006 RMK A01 T02820179  RH  053%=      5-min Rain = 0
KMC4 150110Z 21006KT 28/18 A3006 RMK A01 T02830177  RH  053%=      5-min Rain = 0
KMC4 150111Z 19006KT 28/18 A3006 RMK A01 T02830178  RH  053%=      5-min Rain = 0
KMC4 150112Z 18005KT 28/18 A3006 RMK A01 T02830180  RH  053%=      5-min Rain = 0
KMC4 150113Z 18005KT 28/18 A3006 RMK A01 T02830178  RH  053%=      5-min Rain = 0
KMC4 150114Z 18006KT 28/18 A3006 RMK A01 T02820179  RH  053%=      5-min Rain = 0
KMC4 150115Z 18007KT 28/18 A3006 RMK A01 T02820179  RH  054%=      5-min Rain = 0
KMC4 150116Z 17006KT 28/18 A3006 RMK A01 T02810179  RH  054%=      5-min Rain = 0
KMC4 150117Z 17006KT 28/18 A3006 RMK A01 T02810179  RH  054%=      5-min Rain = 0
KMC4 150118Z 16006KT 28/18 A3006 RMK A01 T02810179  RH  054%=      5-min Rain = 0
KMC4 150119Z 17005KT 28/18 A3006 RMK A01 T02800179  RH  054%=      5-min Rain = 0
KMC4 150120Z 17004KT 28/18 A3006 RMK A01 T02800179  RH  054%=      5-min Rain = 0
KMC4 150121Z 17005KT 28/18 A3006 RMK A01 T02800179  RH  054%=      5-min Rain = 0
KMC4 150122Z 18004KT 28/18 A3006 RMK A01 T02800179  RH  054%=      5-min Rain = 0
KMC4 150123Z 18003KT 28/18 A3006 RMK A01 T02800179  RH  054%=      5-min Rain = 0
KMC4 150124Z 18003KT 28/18 A3006 RMK A01 T02790179  RH  054%=      5-min Rain = 0
KMC4 150125Z 18002KT 28/18 A3006 RMK A01 T02800179  RH  054%=      5-min Rain = 0
KMC4 150126Z 17003KT 28/18 A3006 RMK A01 T02790179  RH  054%=      5-min Rain = 0
KMC4 150127Z 17003KT 28/18 A3006 RMK A01 T02800180  RH  055%=      5-min Rain = 0
KMC4 150128Z 18003KT 28/18 A3006 RMK A01 T02790179  RH  055%=      5-min Rain = 0
KMC4 150129Z 18004KT 28/18 A3006 RMK A01 T02790179  RH  055%=      5-min Rain = 0
KMC4 150130Z 18004KT 28/18 A3006 RMK A01 T02790179  RH  055%=      5-min Rain = 0
KMC4 150131Z 19004KT 28/18 A3006 RMK A01 T02790179  RH  055%=      5-min Rain = 0
KMC4 150132Z 19004KT 28/18 A3006 RMK A01 T02790179  RH  055%=      5-min Rain = 0
KMC4 150133Z 19003KT 28/18 A3006 RMK A01 T02790179  RH  055%=      5-min Rain = 0
KMC4 150134Z 19003KT 28/18 A3006 RMK A01 T02790179  RH  055%=      5-min Rain = 0
KMC4 150135Z 18004KT 28/18 A3006 RMK A01 T02790179  RH  055%=      5-min Rain = 0
KMC4 150136Z 17005KT 28/18 A3006 RMK A01 T02790179  RH  055%=      5-min Rain = 0
KMC4 150137Z 17004KT 28/18 A3006 RMK A01 T02780179  RH  055%=      5-min Rain = 0
KMC4 150138Z 18004KT 28/18 A3006 RMK A01 T02780178  RH  054%=      5-min Rain = 0
KMC4 150139Z 17004KT 28/18 A3006 RMK A01 T02780178  RH  054%=      5-min Rain = 0
KMC4 150140Z 16004KT 28/18 A3006 RMK A01 T02780178  RH  055%=      5-min Rain = 0
KMC4 150141Z 17004KT 28/18 A3006 RMK A01 T02780178  RH  055%=      5-min Rain = 0
KMC4 150142Z 16004KT 28/18 A3006 RMK A01 T02770178  RH  055%=      5-min Rain = 0
KMC4 150143Z 17004KT 28/18 A3006 RMK A01 T02770177  RH  055%=      5-min Rain = 0
KMC4 150144Z 16005KT 28/18 A3006 RMK A01 T02770177  RH  055%=      5-min Rain = 0
KMC4 150145Z 16004KT 28/18 A3006 RMK A01 T02770177  RH  055%=      5-min Rain = 0
KMC4 150146Z 16005KT 28/18 A3006 RMK A01 T02770177  RH  055%=      5-min Rain = 0
KMC4 150147Z 16004KT 28/18 A3006 RMK A01 T02770177  RH  054%=      5-min Rain = 0
KMC4 150148Z 16005KT 28/18 A3006 RMK A01 T02770176  RH  054%=      5-min Rain = 0
KMC4 150149Z 16005KT 28/18 A3006 RMK A01 T02770176  RH  054%=      5-min Rain = 0
KMC4 150150Z 17005KT 28/18 A3006 RMK A01 T02770176  RH  054%=      5-min Rain = 0
KMC4 150151Z 16004KT 28/18 A3006 RMK A01 T02770176  RH  054%=      5-min Rain = 0
KMC4 150152Z 16004KT 28/18 A3006 RMK A01 T02770176  RH  054%=      5-min Rain = 0
KMC4 150153Z 16004KT 28/18 A3006 RMK A01 T02770177  RH  054%=      5-min Rain = 0
KMC4 150154Z 16004KT 28/18 A3006 RMK A01 T02770177  RH  055%=      5-min Rain = 0
KMC4 150155Z 15003KT 28/18 A3006 RMK A01 T02760177  RH  055%=      5-min Rain = 0
KMC4 150156Z 15003KT 28/18 A3006 RMK A01 T02760177  RH  055%=      5-min Rain = 0
KMC4 150157Z 15002KT 28/18 A3006 RMK A01 T02760176  RH  054%=      5-min Rain = 0
KMC4 150158Z 14002KT 28/18 A3006 RMK A01 T02760176  RH  054%=      5-min Rain = 0
KMC4 150159Z 15001KT 28/18 A3006 RMK A01 T02760176  RH  054%=      5-min Rain = 0
KMC4 150200Z 16001KT 28/18 A3006 RMK A01 T02760176  RH  054%=      5-min Rain = 0
KMC4 150201Z 16001KT 28/18 A3006 RMK A01 T02760176  RH  054%=      5-min Rain = 0
KMC4 150202Z 16002KT 28/18 A3006 RMK A01 T02760175  RH  054%=      5-min Rain = 0
KMC4 150203Z 16002KT 28/18 A3006 RMK A01 T02760175  RH  054%=      5-min Rain = 0
KMC4 150204Z 15002KT 28/18 A3006 RMK A01 T02760175  RH  054%=      5-min Rain = 0
KMC4 150205Z 15003KT 28/18 A3006 RMK A01 T02760175  RH  054%=      5-min Rain = 0
KMC4 150206Z 14003KT 28/18 A3006 RMK A01 T02760175  RH  054%=      5-min Rain = 0
KMC4 150207Z 13003KT 28/18 A3006 RMK A01 T02760175  RH  054%=      5-min Rain = 0
KMC4 150208Z 13003KT 28/18 A3006 RMK A01 T02760175  RH  054%=      5-min Rain = 0
KMC4 150209Z 13003KT 28/18 A3006 RMK A01 T02760175  RH  054%=      5-min Rain = 0
KMC4 150210Z 12003KT 28/18 A3006 RMK A01 T02760175  RH  054%=      5-min Rain = 0
KMC4 150211Z 12004KT 28/18 A3006 RMK A01 T02760175  RH  054%=      5-min Rain = 0
KMC4 150212Z 12004KT 28/18 A3006 RMK A01 T02760175  RH  054%=      5-min Rain = 0
KMC4 150213Z 12005KT 28/18 A3006 RMK A01 T02760175  RH  054%=      5-min Rain = 0
KMC4 150214Z 12004KT 28/18 A3006 RMK A01 T02760175  RH  054%=      5-min Rain = 0
KMC4 150215Z 13004KT 28/18 A3006 RMK A01 T02750175  RH  054%=      5-min Rain = 0
KMC4 150216Z 14004KT 28/18 A3006 RMK A01 T02750175  RH  054%=      5-min Rain = 0
KMC4 150217Z 14003KT 28/18 A3006 RMK A01 T02750175  RH  054%=      5-min Rain = 0
KMC4 150218Z 15003KT 28/18 A3006 RMK A01 T02750175  RH  054%=      5-min Rain = 0
KMC4 150219Z 15003KT 28/18 A3006 RMK A01 T02750175  RH  054%=      5-min Rain = 0
KMC4 150220Z 15002KT 28/18 A3006 RMK A01 T02750175  RH  054%=      5-min Rain = 0
KMC4 150221Z 14002KT 28/18 A3007 RMK A01 T02750175  RH  054%=      5-min Rain = 0
KMC4 150222Z 12001KT 28/18 A3007 RMK A01 T02750175  RH  055%=      5-min Rain = 0
KMC4 150223Z 12001KT 28/18 A3007 RMK A01 T02750176  RH  055%=      5-min Rain = 0
KMC4 150224Z 10001KT 28/18 A3007 RMK A01 T02750175  RH  054%=      5-min Rain = 0
KMC4 150225Z 08001KT 28/18 A3007 RMK A01 T02750175  RH  054%=      5-min Rain = 0
KMC4 150226Z 06001KT 28/18 A3007 RMK A01 T02750175  RH  054%=      5-min Rain = 0
KMC4 150227Z 05001KT 28/18 A3007 RMK A01 T02750175  RH  054%=      5-min Rain = 0
KMC4 150228Z 04001KT 28/18 A3007 RMK A01 T02750175  RH  054%=      5-min Rain = 0
KMC4 150229Z 04001KT 28/18 A3007 RMK A01 T02750175  RH  054%=      5-min Rain = 0
KMC4 150230Z 04002KT 28/18 A3008 RMK A01 T02760175  RH  054%=      5-min Rain = 0
KMC4 150231Z 04001KT 28/18 A3008 RMK A01 T02760175  RH  054%=      5-min Rain = 0
KMC4 150232Z 06001KT 28/18 A3008 RMK A01 T02760175  RH  054%=      5-min Rain = 0
KMC4 150233Z 05001KT 28/18 A3008 RMK A01 T02760175  RH  054%=      5-min Rain = 0
KMC4 150234Z 05000KT 28/18 A3008 RMK A01 T02760175  RH  054%=      5-min Rain = 0
KMC4 150235Z 00000KT 28/18 A3008 RMK A01 T02760175  RH  054%=      5-min Rain = 0
KMC4 150236Z 00000KT 28/17 A3008 RMK A01 T02760174  RH  054%=      5-min Rain = 0
KMC4 150237Z 00000KT 28/18 A3008 RMK A01 T02770175  RH  054%=      5-min Rain = 0
KMC4 150238Z 00000KT 28/18 A3008 RMK A01 T02760175  RH  054%=      5-min Rain = 0
KMC4 150239Z 00000KT 28/18 A3008 RMK A01 T02770175  RH  054%=      5-min Rain = 0
KMC4 150240Z 00000KT 28/18 A3008 RMK A01 T02760175  RH  054%=      5-min Rain = 0
KMC4 150241Z 22000KT 28/18 A3008 RMK A01 T02760175  RH  054%=      5-min Rain = 0
KMC4 150242Z 20001KT 28/17 A3008 RMK A01 T02760174  RH  054%=      5-min Rain = 0
KMC4 150243Z 20001KT 28/17 A3008 RMK A01 T02770174  RH  054%=      5-min Rain = 0
KMC4 150244Z 20001KT 28/17 A3008 RMK A01 T02770174  RH  054%=      5-min Rain = 0
KMC4 150245Z 20001KT 28/17 A3008 RMK A01 T02770174  RH  053%=      5-min Rain = 0
KMC4 150246Z 20001KT 28/17 A3008 RMK A01 T02770174  RH  053%=      5-min Rain = 0
KMC4 150247Z 19001KT 28/17 A3009 RMK A01 T02770174  RH  053%=      5-min Rain = 0
KMC4 150248Z 17002KT 28/17 A3009 RMK A01 T02770174  RH  053%=      5-min Rain = 0
KMC4 150249Z 16003KT 28/18 A3009 RMK A01 T02780175  RH  054%=      5-min Rain = 0
KMC4 150250Z 16003KT 28/18 A3009 RMK A01 T02770175  RH  054%=      5-min Rain = 0
KMC4 150251Z 16004KT 28/18 A3009 RMK A01 T02760175  RH  054%=      5-min Rain = 0
KMC4 150252Z 17005KT 28/18 A3009 RMK A01 T02760175  RH  054%=      5-min Rain = 0
KMC4 150253Z 17007KT 28/18 A3009 RMK A01 T02750175  RH  054%=      5-min Rain = 0
KMC4 150254Z 17008KT 27/18 A301 RMK A01 T02730175  RH  055%=      5-min Rain = 0
KMC4 150255Z 17008KT 27/18 A301 RMK A01 T02710175  RH  056%=      5-min Rain = 0
KMC4 150256Z 16006KT 27/18 A301 RMK A01 T02690175  RH  056%=      5-min Rain = 0
KMC4 150257Z 16005KT 27/18 A3009 RMK A01 T02670175  RH  057%=      5-min Rain = 0
KMC4 150258Z 16005KT 27/18 A3009 RMK A01 T02670175  RH  057%=      5-min Rain = 0
KMC4 150259Z 16005KT 27/18 A3009 RMK A01 T02660175  RH  057%=      5-min Rain = 0
KMC4 150300Z 16005KT 27/18 A3009 RMK A01 T02660175  RH  057%=      5-min Rain = 0
KMC4 150301Z 16004KT 27/18 A3009 RMK A01 T02660175  RH  057%=      5-min Rain = 0
KMC4 150302Z 16004KT 27/17 A3009 RMK A01 T02660174  RH  057%=      5-min Rain = 0
KMC4 150303Z 16004KT 27/17 A3009 RMK A01 T02660174  RH  057%=      5-min Rain = 0
KMC4 150304Z 16003KT 27/17 A3009 RMK A01 T02660174  RH  057%=      5-min Rain = 0
KMC4 150305Z 15004KT 27/17 A3009 RMK A01 T02660174  RH  057%=      5-min Rain = 0
KMC4 150306Z 15004KT 27/17 A3009 RMK A01 T02650174  RH  057%=      5-min Rain = 0
KMC4 150307Z 15003KT 27/17 A3009 RMK A01 T02660174  RH  057%=      5-min Rain = 0
KMC4 150308Z 14003KT 27/17 A3009 RMK A01 T02660174  RH  057%=      5-min Rain = 0
KMC4 150309Z 14002KT 27/17 A3009 RMK A01 T02650174  RH  057%=      5-min Rain = 0
KMC4 150310Z 14003KT 27/18 A3009 RMK A01 T02660175  RH  057%=      5-min Rain = 0
KMC4 150311Z 14004KT 27/18 A3009 RMK A01 T02660176  RH  058%=      5-min Rain = 0
KMC4 150312Z 13005KT 27/18 A3009 RMK A01 T02650176  RH  058%=      5-min Rain = 0
KMC4 150313Z 14005KT 27/18 A3009 RMK A01 T02650176  RH  058%=      5-min Rain = 0
KMC4 150314Z 13004KT 26/18 A3009 RMK A01 T02640176  RH  058%=      5-min Rain = 0
KMC4 150315Z 13005KT 26/18 A3009 RMK A01 T02640176  RH  058%=      5-min Rain = 0
KMC4 150316Z 14005KT 26/18 A3009 RMK A01 T02640176  RH  059%=      5-min Rain = 0
KMC4 150317Z 13004KT 26/18 A3009 RMK A01 T02630177  RH  059%=      5-min Rain = 0
KMC4 150318Z 13004KT 26/18 A3009 RMK A01 T02630177  RH  059%=      5-min Rain = 0
KMC4 150319Z 13005KT 26/18 A3009 RMK A01 T02630177  RH  059%=      5-min Rain = 0
KMC4 150320Z 13005KT 26/18 A3009 RMK A01 T02620176  RH  059%=      5-min Rain = 0
KMC4 150321Z 12005KT 26/18 A3009 RMK A01 T02620176  RH  059%=      5-min Rain = 0
KMC4 150322Z 12006KT 26/18 A301 RMK A01 T02620176  RH  059%=      5-min Rain = 0
KMC4 150323Z 12006KT 26/18 A301 RMK A01 T02620177  RH  059%=      5-min Rain = 0
KMC4 150324Z 13006KT 26/18 A301 RMK A01 T02610177  RH  060%=      5-min Rain = 0
KMC4 150325Z 13005KT 26/18 A301 RMK A01 T02610177  RH  060%=      5-min Rain = 0
KMC4 150326Z 13006KT 26/18 A301 RMK A01 T02610177  RH  060%=      5-min Rain = 0
KMC4 150327Z 13005KT 26/18 A301 RMK A01 T02620178  RH  060%=      5-min Rain = 0
KMC4 150328Z 12005KT 26/18 A301 RMK A01 T02610178  RH  060%=      5-min Rain = 0
KMC4 150329Z 12003KT 26/18 A301 RMK A01 T02620179  RH  060%=      5-min Rain = 0
KMC4 150330Z 11003KT 26/18 A301 RMK A01 T02620179  RH  060%=      5-min Rain = 0
KMC4 150331Z 12003KT 26/18 A301 RMK A01 T02610179  RH  060%=      5-min Rain = 0
KMC4 150332Z 13003KT 26/18 A301 RMK A01 T02620179  RH  060%=      5-min Rain = 0
KMC4 150333Z 12004KT 26/18 A301 RMK A01 T02610179  RH  060%=      5-min Rain = 0
KMC4 150334Z 12004KT 26/18 A301 RMK A01 T02620179  RH  060%=      5-min Rain = 0
KMC4 150335Z 12003KT 26/18 A301 RMK A01 T02610179  RH  060%=      5-min Rain = 0
KMC4 150336Z 12003KT 26/18 A301 RMK A01 T02620179  RH  060%=      5-min Rain = 0
KMC4 150337Z 12003KT 26/18 A301 RMK A01 T02620179  RH  060%=      5-min Rain = 0
KMC4 150338Z 12003KT 26/18 A301 RMK A01 T02620179  RH  060%=      5-min Rain = 0
KMC4 150339Z 11004KT 26/18 A301 RMK A01 T02620179  RH  060%=      5-min Rain = 0
KMC4 150340Z 12004KT 26/18 A301 RMK A01 T02610178  RH  060%=      5-min Rain = 0
KMC4 150341Z 12005KT 26/18 A301 RMK A01 T02610177  RH  060%=      5-min Rain = 0
KMC4 150342Z 11005KT 26/18 A301 RMK A01 T02620178  RH  060%=      5-min Rain = 0
KMC4 150343Z 12005KT 26/18 A301 RMK A01 T02620178  RH  060%=      5-min Rain = 0
KMC4 150344Z 12005KT 26/18 A301 RMK A01 T02620177  RH  060%=      5-min Rain = 0
KMC4 150345Z 12005KT 26/18 A301 RMK A01 T02620177  RH  060%=      5-min Rain = 0
KMC4 150346Z 12005KT 26/18 A301 RMK A01 T02620177  RH  059%=      5-min Rain = 0
KMC4 150347Z 12005KT 26/18 A301 RMK A01 T02620177  RH  059%=      5-min Rain = 0
KMC4 150348Z 12004KT 26/18 A301 RMK A01 T02620176  RH  059%=      5-min Rain = 0
KMC4 150349Z 12005KT 26/18 A301 RMK A01 T02620176  RH  059%=      5-min Rain = 0
KMC4 150350Z 12005KT 26/18 A301 RMK A01 T02620176  RH  059%=      5-min Rain = 0
KMC4 150351Z 13004KT 26/18 A301 RMK A01 T02630176  RH  059%=      5-min Rain = 0
KMC4 150352Z 12005KT 26/18 A301 RMK A01 T02630176  RH  059%=      5-min Rain = 0
KMC4 150353Z 13005KT 26/18 A301 RMK A01 T02620175  RH  059%=      5-min Rain = 0
KMC4 150354Z 13004KT 26/18 A301 RMK A01 T02620175  RH  059%=      5-min Rain = 0
KMC4 150355Z 13005KT 26/18 A301 RMK A01 T02620175  RH  059%=      5-min Rain = 0
KMC4 150356Z 13005KT 26/18 A301 RMK A01 T02620175  RH  059%=      5-min Rain = 0
KMC4 150357Z 13005KT 26/18 A301 RMK A01 T02620175  RH  059%=      5-min Rain = 0
KMC4 150358Z 13005KT 26/18 A301 RMK A01 T02620175  RH  059%=      5-min Rain = 0
KMC4 150359Z 13004KT 26/18 A301 RMK A01 T02610175  RH  059%=      5-min Rain = 0
KMC4 150400Z 13005KT 26/18 A301 RMK A01 T02610175  RH  059%=      5-min Rain = 0
KMC4 150401Z 13006KT 26/18 A301 RMK A01 T02600175  RH  059%=      5-min Rain = 0
KMC4 150402Z 14005KT 26/18 A301 RMK A01 T02610175  RH  059%=      5-min Rain = 0
KMC4 150403Z 14006KT 26/18 A301 RMK A01 T02600175  RH  059%=      5-min Rain = 0
KMC4 150404Z 13006KT 26/18 A301 RMK A01 T02600175  RH  059%=      5-min Rain = 0
KMC4 150405Z 13006KT 26/18 A301 RMK A01 T02600175  RH  059%=      5-min Rain = 0
KMC4 150406Z 13007KT 26/18 A301 RMK A01 T02600175  RH  060%=      5-min Rain = 0
KMC4 150407Z 13006KT 26/18 A301 RMK A01 T02600176  RH  060%=      5-min Rain = 0
KMC4 150408Z 13006KT 26/18 A301 RMK A01 T02600176  RH  060%=      5-min Rain = 0
KMC4 150409Z 13005KT 26/18 A301 RMK A01 T02600176  RH  060%=      5-min Rain = 0
KMC4 150410Z 13005KT 26/18 A301 RMK A01 T02600176  RH  060%=      5-min Rain = 0
KMC4 150411Z 14005KT 26/18 A301 RMK A01 T02590176  RH  060%=      5-min Rain = 0
KMC4 150412Z 13004KT 26/18 A301 RMK A01 T02590176  RH  060%=      5-min Rain = 0
KMC4 150413Z 13004KT 26/18 A301 RMK A01 T02590176  RH  060%=      5-min Rain = 0
KMC4 150414Z 13004KT 26/18 A301 RMK A01 T02580176  RH  060%=      5-min Rain = 0
KMC4 150415Z 13004KT 26/18 A301 RMK A01 T02580176  RH  060%=      5-min Rain = 0
KMC4 150416Z 13005KT 26/18 A301 RMK A01 T02580175  RH  060%=      5-min Rain = 0
KMC4 150417Z 13005KT 26/18 A301 RMK A01 T02580176  RH  061%=      5-min Rain = 0
KMC4 150418Z 13005KT 26/18 A301 RMK A01 T02570176  RH  061%=      5-min Rain = 0
KMC4 150419Z 13004KT 26/18 A301 RMK A01 T02580176  RH  061%=      5-min Rain = 0
KMC4 150420Z 13004KT 26/18 A301 RMK A01 T02580176  RH  061%=      5-min Rain = 0
KMC4 150421Z 13004KT 26/18 A301 RMK A01 T02570176  RH  061%=      5-min Rain = 0
KMC4 150422Z 13003KT 26/18 A301 RMK A01 T02570176  RH  061%=      5-min Rain = 0
KMC4 150423Z 13003KT 26/18 A301 RMK A01 T02570176  RH  061%=      5-min Rain = 0
KMC4 150424Z 13003KT 26/18 A301 RMK A01 T02570176  RH  061%=      5-min Rain = 0
KMC4 150425Z 13003KT 26/18 A301 RMK A01 T02570176  RH  061%=      5-min Rain = 0
KMC4 150426Z 12003KT 26/18 A301 RMK A01 T02560176  RH  061%=      5-min Rain = 0
KMC4 150427Z 12003KT 26/18 A301 RMK A01 T02560176  RH  061%=      5-min Rain = 0
KMC4 150428Z 11003KT 26/18 A301 RMK A01 T02560176  RH  061%=      5-min Rain = 0
KMC4 150429Z 11003KT 26/18 A301 RMK A01 T02560177  RH  061%=      5-min Rain = 0
KMC4 150430Z 10003KT 26/18 A301 RMK A01 T02570177  RH  062%=      5-min Rain = 0
KMC4 150431Z 11003KT 26/18 A301 RMK A01 T02560177  RH  062%=      5-min Rain = 0
KMC4 150432Z 11001KT 26/18 A301 RMK A01 T02560177  RH  062%=      5-min Rain = 0
KMC4 150433Z 11001KT 26/18 A301 RMK A01 T02570177  RH  061%=      5-min Rain = 0
KMC4 150434Z 11001KT 26/18 A301 RMK A01 T02560177  RH  062%=      5-min Rain = 0
KMC4 150435Z 00000KT 26/18 A301 RMK A01 T02560177  RH  061%=      5-min Rain = 0
KMC4 150436Z 07001KT 26/18 A301 RMK A01 T02560177  RH  062%=      5-min Rain = 0
KMC4 150437Z 09002KT 26/18 A301 RMK A01 T02570178  RH  062%=      5-min Rain = 0
KMC4 150438Z 10003KT 26/18 A301 RMK A01 T02570178  RH  062%=      5-min Rain = 0
KMC4 150439Z 10002KT 26/18 A301 RMK A01 T02570178  RH  062%=      5-min Rain = 0
KMC4 150440Z 10002KT 26/18 A301 RMK A01 T02570178  RH  062%=      5-min Rain = 0
KMC4 150441Z 11002KT 26/18 A301 RMK A01 T02570178  RH  062%=      5-min Rain = 0
KMC4 150442Z 12002KT 26/18 A301 RMK A01 T02570178  RH  061%=      5-min Rain = 0
KMC4 150443Z 13002KT 26/18 A301 RMK A01 T02570178  RH  061%=      5-min Rain = 0
KMC4 150444Z 13002KT 26/18 A301 RMK A01 T02570178  RH  062%=      5-min Rain = 0
KMC4 150445Z 13002KT 26/18 A301 RMK A01 T02570178  RH  062%=      5-min Rain = 0
KMC4 150446Z 13002KT 26/18 A301 RMK A01 T02570178  RH  062%=      5-min Rain = 0
KMC4 150447Z 13002KT 26/18 A301 RMK A01 T02560177  RH  062%=      5-min Rain = 0
KMC4 150448Z 13002KT 26/18 A301 RMK A01 T02560177  RH  062%=      5-min Rain = 0
KMC4 150449Z 13003KT 26/18 A301 RMK A01 T02560177  RH  062%=      5-min Rain = 0
KMC4 150450Z 13003KT 26/18 A301 RMK A01 T02550177  RH  062%=      5-min Rain = 0
KMC4 150451Z 12003KT 26/18 A301 RMK A01 T02550177  RH  062%=      5-min Rain = 0
KMC4 150452Z 12003KT 26/18 A301 RMK A01 T02550177  RH  062%=      5-min Rain = 0
KMC4 150453Z 12003KT 25/18 A301 RMK A01 T02540177  RH  062%=      5-min Rain = 0
KMC4 150454Z 11003KT 25/18 A301 RMK A01 T02540177  RH  062%=      5-min Rain = 0
KMC4 150455Z 11003KT 25/18 A301 RMK A01 T02530177  RH  063%=      5-min Rain = 0
KMC4 150456Z 10003KT 25/18 A301 RMK A01 T02530177  RH  063%=      5-min Rain = 0
KMC4 150457Z 10002KT 25/18 A3011 RMK A01 T02530178  RH  063%=      5-min Rain = 0
KMC4 150458Z 08002KT 25/18 A301 RMK A01 T02530178  RH  063%=      5-min Rain = 0
KMC4 150459Z 07001KT 25/18 A301 RMK A01 T02530178  RH  063%=      5-min Rain = 0

Page generated in 0.1207 seconds.